Time,TemperatureF,DewpointF,PressureIn,WindDirection,WindDirectionDegrees,WindSpeedMPH,WindSpeedGustMPH,Humidity,HourlyPrecipIn,Conditions,Clouds,dailyrainin,SoftwareType,DateUTC
2013-07-28 00:00:00,65.4,63.0,29.99,North,350,0.0,0.0,92,0.00,,---,0.00,VWS V14.01,2013-07-28 04:00:00,
2013-07-28 00:12:00,65.8,64.0,29.99,North,349,0.0,0.0,94,0.00,,---,0.00,VWS V14.01,2013-07-28 04:12:00,
2013-07-28 00:17:00,65.9,63.8,29.99,NNW,340,0.0,0.0,93,0.00,,---,0.00,VWS V14.01,2013-07-28 04:17:00,
2013-07-28 00:18:00,65.9,63.8,29.99,NNW,340,0.0,0.0,93,0.00,,---,0.00,VWS V14.01,2013-07-28 04:18:00,
2013-07-28 00:20:00,65.9,63.8,29.99,NW,321,0.0,0.0,93,0.00,,---,0.00,VWS V14.01,2013-07-28 04:20:00,
2013-07-28 00:23:00,66.0,64.2,29.99,NW,314,0.0,0.0,94,0.00,,---,0.00,VWS V14.01,2013-07-28 04:23:00,
2013-07-28 00:24:00,66.3,64.5,29.99,NE,34,0.0,0.0,94,0.00,,---,0.00,VWS V14.01,2013-07-28 04:24:00,
2013-07-28 00:26:00,66.7,64.9,29.99,WNW,298,0.0,0.0,94,0.00,,---,0.00,VWS V14.01,2013-07-28 04:26:00,
2013-07-28 00:27:00,66.8,65.0,29.99,WNW,302,0.0,0.0,94,0.00,,---,0.00,VWS V14.01,2013-07-28 04:27:00,
2013-07-28 00:28:00,66.9,65.1,29.99,WNW,287,0.0,0.0,94,0.00,,---,0.00,VWS V14.01,2013-07-28 04:28:00,
2013-07-28 00:29:00,67.1,65.3,29.99,NNE,18,0.0,0.0,94,0.00,,---,0.00,VWS V14.01,2013-07-28 04:29:00,
2013-07-28 00:30:00,67.2,65.1,29.99,North,8,0.0,0.0,93,0.00,,---,0.00,VWS V14.01,2013-07-28 04:30:00,
2013-07-28 00:32:00,67.3,64.9,29.99,North,9,0.0,0.0,92,0.00,,---,0.00,VWS V14.01,2013-07-28 04:32:00,
2013-07-28 00:33:00,67.3,64.9,29.99,NNW,338,0.0,0.0,92,0.00,,---,0.00,VWS V14.01,2013-07-28 04:33:00,
2013-07-28 00:34:00,67.2,64.5,29.99,NNW,340,0.0,0.0,91,0.00,,---,0.00,VWS V14.01,2013-07-28 04:34:00,
2013-07-28 00:35:00,67.1,64.4,29.99,NNW,340,0.0,0.0,91,0.00,,---,0.00,VWS V14.01,2013-07-28 04:35:00,
2013-07-28 00:39:00,67.4,65.0,29.98,ESE,105,0.0,1.0,92,0.00,,---,0.00,VWS V14.01,2013-07-28 04:39:00,
2013-07-28 00:40:00,67.7,65.3,29.98,SE,143,0.0,1.0,92,0.00,,---,0.00,VWS V14.01,2013-07-28 04:40:00,
2013-07-28 00:44:00,68.2,65.2,29.98,East,95,0.0,1.0,90,0.00,,---,0.00,VWS V14.01,2013-07-28 04:44:00,
2013-07-28 00:45:00,68.2,64.8,29.98,East,82,0.0,1.0,89,0.00,,---,0.00,VWS V14.01,2013-07-28 04:45:00,
2013-07-28 00:46:00,68.2,65.2,29.98,ENE,72,0.0,1.0,90,0.00,,---,0.00,VWS V14.01,2013-07-28 04:46:00,
2013-07-28 00:49:00,67.9,64.9,29.98,NNE,12,0.0,1.0,90,0.00,,---,0.00,VWS V14.01,2013-07-28 04:49:00,
2013-07-28 00:50:00,67.9,64.9,29.98,North,11,0.0,1.0,90,0.00,,---,0.00,VWS V14.01,2013-07-28 04:50:00,
2013-07-28 00:51:00,67.8,64.8,29.98,NNE,12,0.0,1.0,90,0.00,,---,0.00,VWS V14.01,2013-07-28 04:51:00,
2013-07-28 00:52:00,67.8,64.8,29.98,North,359,0.0,1.0,90,0.00,,---,0.00,VWS V14.01,2013-07-28 04:52:00,
2013-07-28 00:55:00,67.7,64.7,29.98,WNW,293,0.0,1.0,90,0.00,,---,0.00,VWS V14.01,2013-07-28 04:55:00,
2013-07-28 00:56:00,67.8,64.8,29.98,NNW,343,0.0,1.0,90,0.00,,---,0.00,VWS V14.01,2013-07-28 04:56:00,
2013-07-28 01:00:00,67.9,65.2,29.98,SSW,210,0.0,0.0,91,0.00,,---,0.00,VWS V14.01,2013-07-28 05:00:00,
2013-07-28 01:01:00,67.9,65.2,29.98,West,274,0.0,0.0,91,0.00,,---,0.00,VWS V14.01,2013-07-28 05:01:00,
2013-07-28 01:05:00,68.2,65.5,29.98,SE,143,0.0,0.0,91,0.00,,---,0.00,VWS V14.01,2013-07-28 05:05:00,
2013-07-28 01:06:00,68.2,65.2,29.98,SE,143,0.0,0.0,90,0.00,,---,0.00,VWS V14.01,2013-07-28 05:06:00,
2013-07-28 01:07:00,68.2,65.2,29.98,North,354,0.0,0.0,90,0.00,,---,0.00,VWS V14.01,2013-07-28 05:07:00,
2013-07-28 01:10:00,67.9,64.5,29.98,NNW,347,0.0,0.0,89,0.00,,---,0.00,VWS V14.01,2013-07-28 05:10:00,
2013-07-28 01:11:00,68.0,65.0,29.98,NNW,347,0.0,0.0,90,0.00,,---,0.00,VWS V14.01,2013-07-28 05:11:00,
2013-07-28 01:12:00,67.9,64.9,29.99,NNW,347,0.0,0.0,90,0.00,,---,0.00,VWS V14.01,2013-07-28 05:12:00,
2013-07-28 01:16:00,67.8,64.8,29.99,East,101,0.0,0.0,90,0.00,,---,0.00,VWS V14.01,2013-07-28 05:16:00,
2013-07-28 01:17:00,67.9,65.2,29.99,ENE,60,4.0,5.0,91,0.00,,---,0.00,VWS V14.01,2013-07-28 05:17:00,
2013-07-28 01:18:00,68.1,65.1,29.99,East,91,2.0,5.0,90,0.00,,---,0.00,VWS V14.01,2013-07-28 05:18:00,
2013-07-28 01:19:00,68.2,65.2,29.99,East,83,3.0,5.0,90,0.00,,---,0.00,VWS V14.01,2013-07-28 05:19:00,
2013-07-28 01:21:00,68.4,65.4,29.99,East,84,1.0,5.0,90,0.00,,---,0.00,VWS V14.01,2013-07-28 05:21:00,
2013-07-28 01:22:00,68.5,65.8,29.99,East,79,2.0,5.0,91,0.00,,---,0.00,VWS V14.01,2013-07-28 05:22:00,
2013-07-28 01:23:00,68.5,65.5,29.99,ENE,72,1.0,5.0,90,0.00,,---,0.00,VWS V14.01,2013-07-28 05:23:00,
2013-07-28 01:24:00,68.5,65.5,29.99,ENE,69,0.0,5.0,90,0.00,,---,0.00,VWS V14.01,2013-07-28 05:24:00,
2013-07-28 01:27:00,68.4,65.0,29.98,ENE,74,0.0,5.0,89,0.00,,---,0.00,VWS V14.01,2013-07-28 05:27:00,
2013-07-28 01:28:00,68.3,64.9,29.98,ENE,69,1.0,5.0,89,0.00,,---,0.00,VWS V14.01,2013-07-28 05:28:00,
2013-07-28 01:29:00,68.1,64.7,29.98,NNE,25,1.0,1.0,89,0.00,,---,0.00,VWS V14.01,2013-07-28 05:29:00,
2013-07-28 01:30:00,68.0,64.6,29.98,North,11,2.0,2.0,89,0.00,,---,0.00,VWS V14.01,2013-07-28 05:30:00,
2013-07-28 01:32:00,67.8,64.4,29.98,North,10,1.0,2.0,89,0.00,,---,0.00,VWS V14.01,2013-07-28 05:32:00,
2013-07-28 01:34:00,67.6,64.2,29.98,North,354,2.0,2.0,89,0.00,,---,0.00,VWS V14.01,2013-07-28 05:34:00,
2013-07-28 01:35:00,67.4,64.4,29.98,North,354,0.0,2.0,90,0.00,,---,0.00,VWS V14.01,2013-07-28 05:35:00,
2013-07-28 01:38:00,67.2,64.2,29.98,North,354,1.0,2.0,90,0.00,,---,0.00,VWS V14.01,2013-07-28 05:38:00,
2013-07-28 01:39:00,67.1,64.1,29.98,North,354,2.0,2.0,90,0.00,,---,0.00,VWS V14.01,2013-07-28 05:39:00,
2013-07-28 01:40:00,67.0,64.0,29.98,North,360,3.0,3.0,90,0.00,,---,0.00,VWS V14.01,2013-07-28 05:40:00,
2013-07-28 01:43:00,66.7,63.7,29.99,North,1,3.0,3.0,90,0.00,,---,0.00,VWS V14.01,2013-07-28 05:43:00,
2013-07-28 01:44:00,66.5,63.8,29.99,North,5,2.0,3.0,91,0.00,,---,0.00,VWS V14.01,2013-07-28 05:44:00,
2013-07-28 01:45:00,66.4,63.7,29.99,North,5,3.0,3.0,91,0.00,,---,0.00,VWS V14.01,2013-07-28 05:45:00,
2013-07-28 01:46:00,66.3,63.6,29.99,North,8,2.0,3.0,91,0.00,,---,0.00,VWS V14.01,2013-07-28 05:46:00,
2013-07-28 01:48:00,66.0,63.6,29.98,North,9,2.0,3.0,92,0.00,,---,0.00,VWS V14.01,2013-07-28 05:48:00,
2013-07-28 01:50:00,65.9,63.5,29.98,North,6,2.0,3.0,92,0.00,,---,0.00,VWS V14.01,2013-07-28 05:50:00,
2013-07-28 01:51:00,65.8,63.4,29.98,North,358,3.0,3.0,92,0.00,,---,0.00,VWS V14.01,2013-07-28 05:51:00,
2013-07-28 01:52:00,65.7,63.3,29.98,North,354,3.0,3.0,92,0.00,,---,0.00,VWS V14.01,2013-07-28 05:52:00,
2013-07-28 01:55:00,65.5,63.1,29.98,NNW,336,2.0,3.0,92,0.00,,---,0.00,VWS V14.01,2013-07-28 05:55:00,
2013-07-28 01:57:00,65.3,63.2,29.98,NNW,334,1.0,3.0,93,0.00,,---,0.00,VWS V14.01,2013-07-28 05:57:00,
2013-07-28 02:00:00,65.1,63.0,29.98,NNW,335,1.0,1.0,93,0.00,,---,0.00,VWS V14.01,2013-07-28 06:00:00,
2013-07-28 02:01:00,65.1,63.0,29.98,NNW,334,1.0,1.0,93,0.00,,---,0.00,VWS V14.01,2013-07-28 06:01:00,
2013-07-28 02:02:00,65.0,62.9,29.98,NNW,338,1.0,1.0,93,0.00,,---,0.00,VWS V14.01,2013-07-28 06:02:00,
2013-07-28 02:03:00,65.0,62.9,29.98,NNW,338,1.0,1.0,93,0.00,,---,0.00,VWS V14.01,2013-07-28 06:03:00,
2013-07-28 02:05:00,65.0,63.2,29.98,North,360,2.0,2.0,94,0.00,,---,0.00,VWS V14.01,2013-07-28 06:05:00,
2013-07-28 02:06:00,65.0,63.2,29.98,North,360,1.0,2.0,94,0.00,,---,0.00,VWS V14.01,2013-07-28 06:06:00,
2013-07-28 02:08:00,65.1,63.3,29.98,North,358,2.0,2.0,94,0.00,,---,0.00,VWS V14.01,2013-07-28 06:08:00,
2013-07-28 02:11:00,65.1,63.3,29.99,North,353,1.0,2.0,94,0.00,,---,0.00,VWS V14.01,2013-07-28 06:11:00,
2013-07-28 02:13:00,65.1,63.3,29.99,North,353,1.0,2.0,94,0.00,,---,0.00,VWS V14.01,2013-07-28 06:13:00,
2013-07-28 02:16:00,65.0,63.2,29.99,North,353,1.0,2.0,94,0.00,,---,0.00,VWS V14.01,2013-07-28 06:16:00,
2013-07-28 02:18:00,64.9,63.1,29.99,North,353,1.0,2.0,94,0.00,,---,0.00,VWS V14.01,2013-07-28 06:18:00,
2013-07-28 02:19:00,64.9,63.1,29.99,North,353,1.0,2.0,94,0.00,,---,0.00,VWS V14.01,2013-07-28 06:19:00,
2013-07-28 02:21:00,64.9,63.1,29.98,North,353,0.0,2.0,94,0.00,,---,0.00,VWS V14.01,2013-07-28 06:21:00,
2013-07-28 02:22:00,64.9,63.1,29.98,North,352,1.0,2.0,94,0.00,,---,0.00,VWS V14.01,2013-07-28 06:22:00,
2013-07-28 02:24:00,65.0,63.5,29.98,North,353,1.0,2.0,95,0.00,,---,0.00,VWS V14.01,2013-07-28 06:24:00,
2013-07-28 02:25:00,65.0,63.5,29.98,North,353,1.0,2.0,95,0.00,,---,0.00,VWS V14.01,2013-07-28 06:25:00,
2013-07-28 02:27:00,65.1,63.6,29.98,North,9,1.0,2.0,95,0.00,,---,0.00,VWS V14.01,2013-07-28 06:27:00,
2013-07-28 02:28:00,65.0,63.5,29.98,North,8,1.0,2.0,95,0.00,,---,0.00,VWS V14.01,2013-07-28 06:28:00,
2013-07-28 02:31:00,64.8,63.0,29.98,North,8,1.0,2.0,94,0.00,,---,0.00,VWS V14.01,2013-07-28 06:31:00,
2013-07-28 02:32:00,64.6,62.8,29.98,North,8,2.0,2.0,94,0.00,,---,0.00,VWS V14.01,2013-07-28 06:32:00,
2013-07-28 02:34:00,64.5,62.7,29.98,North,4,2.0,2.0,94,0.00,,---,0.00,VWS V14.01,2013-07-28 06:34:00,
2013-07-28 02:36:00,64.4,62.6,29.98,North,4,1.0,2.0,94,0.00,,---,0.00,VWS V14.01,2013-07-28 06:36:00,
2013-07-28 02:38:00,64.2,62.4,29.99,NNW,345,1.0,2.0,94,0.00,,---,0.00,VWS V14.01,2013-07-28 06:38:00,
2013-07-28 02:41:00,64.2,62.7,29.99,NNW,345,0.0,2.0,95,0.00,,---,0.00,VWS V14.01,2013-07-28 06:41:00,
2013-07-28 02:42:00,64.2,62.7,29.99,NNW,345,0.0,2.0,95,0.00,,---,0.00,VWS V14.01,2013-07-28 06:42:00,
2013-07-28 02:44:00,64.3,62.8,29.99,NNW,346,0.0,2.0,95,0.00,,---,0.00,VWS V14.01,2013-07-28 06:44:00,
2013-07-28 02:45:00,64.4,62.9,29.99,NNW,345,0.0,2.0,95,0.00,,---,0.00,VWS V14.01,2013-07-28 06:45:00,
2013-07-28 02:46:00,64.4,62.9,29.99,NNW,345,0.0,2.0,95,0.00,,---,0.00,VWS V14.01,2013-07-28 06:46:00,
2013-07-28 02:47:00,64.4,62.9,29.99,NNW,347,1.0,2.0,95,0.00,,---,0.00,VWS V14.01,2013-07-28 06:47:00,
2013-07-28 02:49:00,64.5,63.0,29.99,NNW,347,0.0,2.0,95,0.00,,---,0.00,VWS V14.01,2013-07-28 06:49:00,
2013-07-28 02:52:00,64.6,63.4,29.99,NNW,347,1.0,2.0,96,0.00,,---,0.00,VWS V14.01,2013-07-28 06:52:00,
2013-07-28 02:53:00,64.7,63.2,29.99,NNW,347,1.0,2.0,95,0.00,,---,0.00,VWS V14.01,2013-07-28 06:53:00,
2013-07-28 02:55:00,64.7,63.2,29.99,NNW,347,1.0,2.0,95,0.00,,---,0.00,VWS V14.01,2013-07-28 06:55:00,
2013-07-28 02:58:00,64.6,63.1,29.99,North,349,0.0,2.0,95,0.00,,---,0.00,VWS V14.01,2013-07-28 06:58:00,
2013-07-28 02:59:00,64.6,63.1,29.99,NNW,348,1.0,1.0,95,0.00,,---,0.00,VWS V14.01,2013-07-28 06:59:00,
2013-07-28 03:00:00,64.6,63.1,29.99,NNW,348,1.0,1.0,95,0.00,,---,0.00,VWS V14.01,2013-07-28 07:00:00,
2013-07-28 03:03:00,64.4,62.9,29.99,North,349,0.0,1.0,95,0.00,,---,0.00,VWS V14.01,2013-07-28 07:03:00,
2013-07-28 03:04:00,64.4,62.9,29.99,NNW,348,0.0,1.0,95,0.00,,---,0.00,VWS V14.01,2013-07-28 07:04:00,
2013-07-28 03:06:00,64.3,62.8,29.99,North,349,1.0,1.0,95,0.00,,---,0.00,VWS V14.01,2013-07-28 07:06:00,
2013-07-28 03:09:00,64.3,62.8,29.99,North,349,1.0,1.0,95,0.00,,---,0.00,VWS V14.01,2013-07-28 07:09:00,
2013-07-28 03:10:00,64.3,62.8,29.99,NNW,348,1.0,1.0,95,0.00,,---,0.00,VWS V14.01,2013-07-28 07:10:00,
2013-07-28 03:12:00,64.3,62.8,29.99,North,349,1.0,1.0,95,0.00,,---,0.00,VWS V14.01,2013-07-28 07:12:00,
2013-07-28 03:15:00,64.4,62.9,29.99,NNW,348,0.0,1.0,95,0.00,,---,0.00,VWS V14.01,2013-07-28 07:15:00,
2013-07-28 03:16:00,64.5,63.0,29.99,NNW,348,0.0,1.0,95,0.00,,---,0.00,VWS V14.01,2013-07-28 07:16:00,
2013-07-28 03:17:00,64.5,63.3,29.99,NNW,348,0.0,1.0,96,0.00,,---,0.00,VWS V14.01,2013-07-28 07:17:00,
2013-07-28 03:18:00,64.6,63.4,29.99,North,354,0.0,1.0,96,0.00,,---,0.00,VWS V14.01,2013-07-28 07:18:00,
2013-07-28 03:22:00,64.7,63.5,29.99,North,353,1.0,2.0,96,0.00,,---,0.00,VWS V14.01,2013-07-28 07:22:00,
2013-07-28 03:23:00,64.7,63.5,29.99,North,354,1.0,2.0,96,0.00,,---,0.00,VWS V14.01,2013-07-28 07:23:00,
2013-07-28 03:24:00,64.7,63.2,30.00,North,354,1.0,2.0,95,0.00,,---,0.00,VWS V14.01,2013-07-28 07:24:00,
2013-07-28 03:27:00,64.7,63.2,30.00,NW,325,0.0,2.0,95,0.00,,---,0.00,VWS V14.01,2013-07-28 07:27:00,
2013-07-28 03:28:00,64.7,63.5,30.00,NW,325,0.0,0.0,96,0.00,,---,0.00,VWS V14.01,2013-07-28 07:28:00,
2013-07-28 03:29:00,64.7,63.5,30.00,NW,325,0.0,0.0,96,0.00,,---,0.00,VWS V14.01,2013-07-28 07:29:00,
2013-07-28 03:32:00,64.7,63.5,29.99,NNW,336,1.0,1.0,96,0.00,,---,0.00,VWS V14.01,2013-07-28 07:32:00,
2013-07-28 03:33:00,64.7,63.5,29.99,NNW,336,0.0,1.0,96,0.00,,---,0.00,VWS V14.01,2013-07-28 07:33:00,
2013-07-28 03:35:00,64.7,63.2,29.99,NNW,336,0.0,1.0,95,0.00,,---,0.00,VWS V14.01,2013-07-28 07:35:00,
2013-07-28 03:38:00,64.5,63.0,29.99,North,360,2.0,3.0,95,0.00,,---,0.00,VWS V14.01,2013-07-28 07:38:00,
2013-07-28 03:39:00,64.5,63.0,29.99,North,359,2.0,3.0,95,0.00,,---,0.00,VWS V14.01,2013-07-28 07:39:00,
2013-07-28 03:40:00,64.4,62.9,29.99,North,359,3.0,3.0,95,0.00,,---,0.00,VWS V14.01,2013-07-28 07:40:00,
2013-07-28 03:41:00,64.3,62.8,29.99,North,357,2.0,3.0,95,0.00,,---,0.00,VWS V14.01,2013-07-28 07:41:00,
2013-07-28 03:43:00,64.1,62.6,29.99,North,353,4.0,4.0,95,0.00,,---,0.00,VWS V14.01,2013-07-28 07:43:00,
2013-07-28 03:45:00,64.0,62.5,29.99,NNW,343,3.0,4.0,95,0.00,,---,0.00,VWS V14.01,2013-07-28 07:45:00,
2013-07-28 03:46:00,63.9,62.4,29.99,NNW,347,2.0,4.0,95,0.00,,---,0.00,VWS V14.01,2013-07-28 07:46:00,
2013-07-28 03:47:00,63.8,62.3,29.99,North,353,3.0,4.0,95,0.00,,---,0.00,VWS V14.01,2013-07-28 07:47:00,
2013-07-28 03:49:00,63.7,62.2,29.98,North,349,4.0,4.0,95,0.00,,---,0.00,VWS V14.01,2013-07-28 07:49:00,
2013-07-28 03:51:00,63.6,62.2,29.98,NNW,345,3.0,4.0,95,0.00,,---,0.00,VWS V14.01,2013-07-28 07:51:00,
2013-07-28 03:52:00,63.5,62.0,29.98,North,360,3.0,4.0,95,0.00,,---,0.00,VWS V14.01,2013-07-28 07:52:00,
2013-07-28 03:53:00,63.5,62.0,29.98,North,359,2.0,4.0,95,0.00,,---,0.00,VWS V14.01,2013-07-28 07:53:00,
2013-07-28 03:54:00,63.5,62.0,29.98,North,357,3.0,4.0,95,0.00,,---,0.00,VWS V14.01,2013-07-28 07:54:00,
2013-07-28 03:57:00,63.5,62.0,29.98,North,360,3.0,4.0,95,0.00,,---,0.00,VWS V14.01,2013-07-28 07:57:00,
2013-07-28 03:58:00,63.5,62.3,29.98,North,8,2.0,4.0,96,0.00,,---,0.00,VWS V14.01,2013-07-28 07:58:00,
2013-07-28 04:02:00,63.5,62.3,29.98,North,8,4.0,4.0,96,0.00,,---,0.00,VWS V14.01,2013-07-28 08:02:00,
2013-07-28 04:03:00,63.5,62.3,29.98,North,8,2.0,4.0,96,0.00,,---,0.00,VWS V14.01,2013-07-28 08:03:00,
2013-07-28 04:04:00,63.5,62.3,29.98,North,1,4.0,4.0,96,0.00,,---,0.00,VWS V14.01,2013-07-28 08:04:00,
2013-07-28 04:08:00,63.4,62.2,29.98,North,350,3.0,4.0,96,0.00,,---,0.00,VWS V14.01,2013-07-28 08:08:00,
2013-07-28 04:09:00,63.4,62.2,29.98,North,349,2.0,4.0,96,0.00,,---,0.00,VWS V14.01,2013-07-28 08:09:00,
2013-07-28 04:14:00,63.4,62.2,29.98,North,352,1.0,4.0,96,0.00,,---,0.00,VWS V14.01,2013-07-28 08:14:00,
2013-07-28 04:15:00,63.4,62.2,29.98,North,359,2.0,4.0,96,0.00,,---,0.00,VWS V14.01,2013-07-28 08:15:00,
2013-07-28 04:19:00,63.6,62.4,29.98,NNW,340,0.0,4.0,96,0.00,,---,0.00,VWS V14.01,2013-07-28 08:19:00,
2013-07-28 04:21:00,63.6,62.4,29.98,NNW,340,0.0,4.0,96,0.00,,---,0.00,VWS V14.01,2013-07-28 08:21:00,
2013-07-28 04:22:00,63.6,62.4,29.98,NNW,340,0.0,4.0,96,0.00,,---,0.00,VWS V14.01,2013-07-28 08:22:00,
2013-07-28 04:24:00,63.5,62.3,29.98,NNW,340,0.0,4.0,96,0.00,,---,0.00,VWS V14.01,2013-07-28 08:24:00,
2013-07-28 04:25:00,63.5,62.3,29.99,NNW,340,0.0,4.0,96,0.00,,---,0.00,VWS V14.01,2013-07-28 08:25:00,
2013-07-28 04:26:00,63.5,62.3,29.99,NNW,340,0.0,4.0,96,0.00,,---,0.00,VWS V14.01,2013-07-28 08:26:00,
2013-07-28 04:27:00,63.5,62.3,29.99,NNW,340,0.0,4.0,96,0.00,,---,0.00,VWS V14.01,2013-07-28 08:27:00,
2013-07-28 04:29:00,63.5,62.3,29.99,NNW,340,0.0,0.0,96,0.00,,---,0.00,VWS V14.01,2013-07-28 08:29:00,
2013-07-28 04:30:00,63.5,62.3,29.98,NNW,340,0.0,0.0,96,0.00,,---,0.00,VWS V14.01,2013-07-28 08:30:00,
2013-07-28 04:31:00,63.5,62.3,29.98,NNW,340,0.0,0.0,96,0.00,,---,0.00,VWS V14.01,2013-07-28 08:31:00,
2013-07-28 04:32:00,63.5,62.3,29.98,NNW,340,0.0,0.0,96,0.00,,---,0.00,VWS V14.01,2013-07-28 08:32:00,
2013-07-28 04:34:00,63.4,62.2,29.98,NNW,340,0.0,0.0,96,0.00,,---,0.00,VWS V14.01,2013-07-28 08:34:00,
2013-07-28 04:36:00,63.3,62.1,29.98,NNW,340,1.0,1.0,96,0.00,,---,0.00,VWS V14.01,2013-07-28 08:36:00,
2013-07-28 04:37:00,63.1,61.7,29.98,North,350,2.0,2.0,95,0.00,,---,0.00,VWS V14.01,2013-07-28 08:37:00,
2013-07-28 04:38:00,63.0,61.5,29.98,NNW,345,2.0,2.0,95,0.00,,---,0.00,VWS V14.01,2013-07-28 08:38:00,
2013-07-28 04:40:00,62.8,61.3,29.98,NNW,343,2.0,3.0,95,0.00,,---,0.00,VWS V14.01,2013-07-28 08:40:00,
2013-07-28 04:43:00,62.7,61.5,29.98,North,4,3.0,3.0,96,0.00,,---,0.00,VWS V14.01,2013-07-28 08:43:00,
2013-07-28 04:44:00,62.7,61.5,29.98,North,358,3.0,3.0,96,0.00,,---,0.00,VWS V14.01,2013-07-28 08:44:00,
2013-07-28 04:46:00,62.7,61.5,29.98,North,354,2.0,3.0,96,0.00,,---,0.00,VWS V14.01,2013-07-28 08:46:00,
2013-07-28 04:48:00,62.7,61.5,29.98,NNW,340,1.0,3.0,96,0.00,,---,0.00,VWS V14.01,2013-07-28 08:48:00,
2013-07-28 04:50:00,62.6,61.5,29.98,NNW,340,1.0,3.0,96,0.00,,---,0.00,VWS V14.01,2013-07-28 08:50:00,
2013-07-28 04:51:00,62.6,61.5,29.98,NNW,343,2.0,3.0,96,0.00,,---,0.00,VWS V14.01,2013-07-28 08:51:00,
2013-07-28 04:53:00,62.6,61.5,29.98,NNW,343,2.0,3.0,96,0.00,,---,0.00,VWS V14.01,2013-07-28 08:53:00,
2013-07-28 04:54:00,62.6,61.5,29.98,NNW,343,2.0,3.0,96,0.00,,---,0.00,VWS V14.01,2013-07-28 08:54:00,
2013-07-28 04:55:00,62.7,61.5,29.98,NNW,342,1.0,3.0,96,0.00,,---,0.00,VWS V14.01,2013-07-28 08:55:00,
2013-07-28 04:56:00,62.7,61.8,29.98,NNW,345,2.0,3.0,97,0.00,,---,0.00,VWS V14.01,2013-07-28 08:56:00,
2013-07-28 04:58:00,62.8,61.9,29.98,NNW,347,2.0,2.0,97,0.00,,---,0.00,VWS V14.01,2013-07-28 08:58:00,
2013-07-28 05:00:00,62.8,61.9,29.98,NNW,340,1.0,3.0,97,0.00,,---,0.00,VWS V14.01,2013-07-28 09:00:00,
2013-07-28 05:01:00,62.9,62.0,29.98,NNW,340,1.0,3.0,97,0.00,,---,0.00,VWS V14.01,2013-07-28 09:01:00,
2013-07-28 05:02:00,62.9,62.0,29.98,NNW,340,1.0,3.0,97,0.00,,---,0.00,VWS V14.01,2013-07-28 09:02:00,
2013-07-28 05:03:00,62.9,62.0,29.98,NNW,340,0.0,3.0,97,0.00,,---,0.00,VWS V14.01,2013-07-28 09:03:00,
2013-07-28 05:05:00,62.9,62.0,29.99,NNW,340,0.0,3.0,97,0.00,,---,0.00,VWS V14.01,2013-07-28 09:05:00,
2013-07-28 05:07:00,62.9,62.0,29.99,NNW,340,0.0,3.0,97,0.00,,---,0.00,VWS V14.01,2013-07-28 09:07:00,
2013-07-28 05:09:00,62.9,62.0,29.99,NNW,341,0.0,3.0,97,0.00,,---,0.00,VWS V14.01,2013-07-28 09:09:00,
2013-07-28 05:10:00,62.9,61.8,29.99,NNW,342,0.0,3.0,96,0.00,,---,0.00,VWS V14.01,2013-07-28 09:10:00,
2013-07-28 05:11:00,62.8,61.7,29.99,NNW,342,0.0,3.0,96,0.00,,---,0.00,VWS V14.01,2013-07-28 09:11:00,
2013-07-28 05:13:00,62.7,61.5,29.99,NNW,341,0.0,3.0,96,0.00,,---,0.00,VWS V14.01,2013-07-28 09:13:00,
2013-07-28 05:14:00,62.5,61.3,29.99,North,355,2.0,3.0,96,0.00,,---,0.00,VWS V14.01,2013-07-28 09:14:00,
2013-07-28 05:17:00,62.3,61.2,29.99,NNW,347,2.0,3.0,96,0.00,,---,0.00,VWS V14.01,2013-07-28 09:17:00,
2013-07-28 05:18:00,62.3,61.2,29.99,NNW,347,2.0,3.0,96,0.00,,---,0.00,VWS V14.01,2013-07-28 09:18:00,
2013-07-28 05:20:00,62.2,61.0,29.99,NNW,347,1.0,3.0,96,0.00,,---,0.00,VWS V14.01,2013-07-28 09:20:00,
2013-07-28 05:23:00,62.3,61.2,29.99,NNW,347,2.0,3.0,96,0.00,,---,0.00,VWS V14.01,2013-07-28 09:23:00,
2013-07-28 05:24:00,62.3,61.2,29.99,NNW,347,2.0,3.0,96,0.00,,---,0.00,VWS V14.01,2013-07-28 09:24:00,
2013-07-28 05:26:00,62.3,61.2,29.99,North,350,2.0,3.0,96,0.00,,---,0.00,VWS V14.01,2013-07-28 09:26:00,
2013-07-28 05:27:00,62.3,61.2,29.99,North,355,1.0,3.0,96,0.00,,---,0.00,VWS V14.01,2013-07-28 09:27:00,
2013-07-28 05:28:00,62.4,61.2,29.99,North,356,2.0,2.0,96,0.00,,---,0.00,VWS V14.01,2013-07-28 09:28:00,
2013-07-28 05:29:00,62.3,61.2,29.99,North,354,3.0,3.0,96,0.00,,---,0.00,VWS V14.01,2013-07-28 09:29:00,
2013-07-28 05:31:00,62.3,61.2,29.99,North,359,2.0,3.0,96,0.00,,---,0.00,VWS V14.01,2013-07-28 09:31:00,
2013-07-28 05:32:00,62.4,61.2,29.99,North,357,2.0,3.0,96,0.00,,---,0.00,VWS V14.01,2013-07-28 09:32:00,
2013-07-28 05:34:00,62.4,61.2,29.99,North,353,2.0,3.0,96,0.00,,---,0.00,VWS V14.01,2013-07-28 09:34:00,
2013-07-28 05:35:00,62.4,61.5,29.99,North,353,2.0,3.0,97,0.00,,---,0.00,VWS V14.01,2013-07-28 09:35:00,
2013-07-28 05:36:00,62.4,61.5,29.99,NNW,347,2.0,3.0,97,0.00,,---,0.00,VWS V14.01,2013-07-28 09:36:00,
2013-07-28 05:37:00,62.5,61.6,29.99,NNW,345,2.0,4.0,97,0.00,,---,0.00,VWS V14.01,2013-07-28 09:37:00,
2013-07-28 05:39:00,62.6,61.7,29.99,North,359,2.0,4.0,97,0.00,,---,0.00,VWS V14.01,2013-07-28 09:39:00,
2013-07-28 05:40:00,62.7,61.8,29.99,North,359,2.0,4.0,97,0.00,,---,0.00,VWS V14.01,2013-07-28 09:40:00,
2013-07-28 05:41:00,62.7,61.8,29.99,North,357,3.0,4.0,97,0.00,,---,0.00,VWS V14.01,2013-07-28 09:41:00,
2013-07-28 05:44:00,63.0,62.1,29.98,North,356,3.0,4.0,97,0.00,,---,0.00,VWS V14.01,2013-07-28 09:44:00,
2013-07-28 05:46:00,63.0,62.1,29.98,North,354,2.0,4.0,97,0.00,,---,0.00,VWS V14.01,2013-07-28 09:46:00,
2013-07-28 05:47:00,63.0,62.1,29.98,North,355,1.0,4.0,97,0.00,,---,0.00,VWS V14.01,2013-07-28 09:47:00,
2013-07-28 05:50:00,63.2,62.3,29.99,North,352,1.0,4.0,97,0.00,,---,0.00,VWS V14.01,2013-07-28 09:50:00,
2013-07-28 05:51:00,63.1,62.2,29.99,North,353,2.0,4.0,97,0.00,,---,0.00,VWS V14.01,2013-07-28 09:51:00,
2013-07-28 05:52:00,63.2,62.3,29.99,NNW,347,2.0,4.0,97,0.00,,---,0.00,VWS V14.01,2013-07-28 09:52:00,
2013-07-28 05:53:00,63.2,62.3,29.99,NNW,345,2.0,4.0,97,0.00,,---,0.00,VWS V14.01,2013-07-28 09:53:00,
2013-07-28 05:56:00,63.3,62.4,29.99,North,351,2.0,4.0,97,0.00,,---,0.00,VWS V14.01,2013-07-28 09:56:00,
2013-07-28 05:57:00,63.3,62.4,29.99,NNW,348,1.0,4.0,97,0.00,,---,0.00,VWS V14.01,2013-07-28 09:57:00,
2013-07-28 05:58:00,63.4,62.5,29.99,NNW,348,1.0,4.0,97,0.00,,---,0.00,VWS V14.01,2013-07-28 09:58:00,
2013-07-28 06:02:00,63.4,62.5,29.99,North,350,0.0,2.0,97,0.00,,---,0.00,VWS V14.01,2013-07-28 10:02:00,
2013-07-28 06:03:00,63.5,62.6,29.99,North,349,0.0,2.0,97,0.00,,---,0.00,VWS V14.01,2013-07-28 10:03:00,
2013-07-28 06:04:00,63.5,62.6,29.99,North,349,1.0,2.0,97,0.00,,---,0.00,VWS V14.01,2013-07-28 10:04:00,
2013-07-28 06:07:00,63.5,62.6,29.99,North,357,1.0,2.0,97,0.00,,---,0.00,VWS V14.01,2013-07-28 10:07:00,
2013-07-28 06:08:00,63.5,62.6,29.99,North,352,1.0,2.0,97,0.00,,---,0.00,VWS V14.01,2013-07-28 10:08:00,
2013-07-28 06:09:00,63.5,62.6,29.99,North,352,1.0,2.0,97,0.00,,---,0.00,VWS V14.01,2013-07-28 10:09:00,
2013-07-28 06:12:00,63.5,62.6,29.99,NNW,345,2.0,2.0,97,0.00,,---,0.00,VWS V14.01,2013-07-28 10:12:00,
2013-07-28 06:13:00,63.6,62.7,29.99,NNW,340,2.0,3.0,97,0.00,,---,0.00,VWS V14.01,2013-07-28 10:13:00,
2013-07-28 06:14:00,63.6,62.7,29.99,North,9,2.0,3.0,97,0.00,,---,0.00,VWS V14.01,2013-07-28 10:14:00,
2013-07-28 06:17:00,63.7,62.8,29.99,North,355,2.0,3.0,97,0.00,,---,0.00,VWS V14.01,2013-07-28 10:17:00,
2013-07-28 06:18:00,63.7,62.8,29.99,North,352,2.0,3.0,97,0.00,,---,0.00,VWS V14.01,2013-07-28 10:18:00,
2013-07-28 06:19:00,63.7,62.8,29.99,North,356,2.0,3.0,97,0.00,,---,0.00,VWS V14.01,2013-07-28 10:19:00,
2013-07-28 06:21:00,63.7,62.8,29.99,NNW,348,2.0,3.0,97,0.00,,---,0.00,VWS V14.01,2013-07-28 10:21:00,
2013-07-28 06:22:00,63.8,62.9,29.99,NW,319,2.0,3.0,97,0.00,,---,0.00,VWS V14.01,2013-07-28 10:22:00,
2013-07-28 06:23:00,63.8,62.9,29.99,NNW,328,1.0,3.0,97,0.00,,---,0.00,VWS V14.01,2013-07-28 10:23:00,
2013-07-28 06:25:00,63.8,62.9,29.99,NNW,333,1.0,3.0,97,0.00,,---,0.00,VWS V14.01,2013-07-28 10:25:00,
2013-07-28 06:28:00,64.0,63.1,29.99,North,359,1.0,3.0,97,0.00,,---,0.00,VWS V14.01,2013-07-28 10:28:00,
2013-07-28 06:29:00,64.0,63.1,29.99,North,358,2.0,2.0,97,0.00,,---,0.00,VWS V14.01,2013-07-28 10:29:00,
2013-07-28 06:30:00,64.1,63.2,29.99,North,349,0.0,2.0,97,0.00,,---,0.00,VWS V14.01,2013-07-28 10:30:00,
2013-07-28 06:33:00,64.3,63.4,29.99,North,350,1.0,2.0,97,0.00,,---,0.00,VWS V14.01,2013-07-28 10:33:00,
2013-07-28 06:34:00,64.3,63.4,29.99,North,350,0.0,2.0,97,0.00,,---,0.00,VWS V14.01,2013-07-28 10:34:00,
2013-07-28 06:36:00,64.4,63.5,30.00,North,350,0.0,2.0,97,0.00,,---,0.00,VWS V14.01,2013-07-28 10:36:00,
2013-07-28 06:39:00,64.7,63.8,30.00,North,349,1.0,2.0,97,0.00,,---,0.00,VWS V14.01,2013-07-28 10:39:00,
2013-07-28 06:42:00,64.9,64.0,30.00,North,350,1.0,2.0,97,0.00,,---,0.00,VWS V14.01,2013-07-28 10:42:00,
2013-07-28 06:44:00,65.0,64.1,29.99,North,349,2.0,2.0,97,0.00,,---,0.00,VWS V14.01,2013-07-28 10:44:00,
2013-07-28 06:47:00,65.1,64.2,29.99,North,349,1.0,2.0,97,0.00,,---,0.00,VWS V14.01,2013-07-28 10:47:00,
2013-07-28 06:48:00,65.2,64.3,30.00,North,349,0.0,2.0,97,0.00,,---,0.00,VWS V14.01,2013-07-28 10:48:00,
2013-07-28 06:50:00,65.3,64.4,29.99,NNW,340,2.0,3.0,97,0.00,,---,0.00,VWS V14.01,2013-07-28 10:50:00,
2013-07-28 06:52:00,65.4,64.2,29.99,NNW,339,1.0,3.0,96,0.00,,---,0.00,VWS V14.01,2013-07-28 10:52:00,
2013-07-28 06:53:00,65.4,64.2,29.99,NNW,330,1.0,3.0,96,0.00,,---,0.00,VWS V14.01,2013-07-28 10:53:00,
2013-07-28 06:54:00,65.4,64.2,29.99,NNW,335,1.0,3.0,96,0.00,,---,0.00,VWS V14.01,2013-07-28 10:54:00,
2013-07-28 06:55:00,65.5,64.3,29.99,NNW,333,1.0,3.0,96,0.00,,---,0.00,VWS V14.01,2013-07-28 10:55:00,
2013-07-28 06:56:00,65.6,64.4,29.99,NNW,334,0.0,3.0,96,0.00,,---,0.00,VWS V14.01,2013-07-28 10:56:00,
2013-07-28 06:58:00,65.7,64.5,29.99,NNW,335,0.0,0.0,96,0.00,,---,0.00,VWS V14.01,2013-07-28 10:58:00,
2013-07-28 07:01:00,65.8,64.6,29.99,NNW,338,0.0,2.0,96,0.00,,---,0.00,VWS V14.01,2013-07-28 11:01:00,
2013-07-28 07:03:00,66.0,64.8,29.99,NNW,338,0.0,2.0,96,0.00,,---,0.00,VWS V14.01,2013-07-28 11:03:00,
2013-07-28 07:04:00,66.1,64.9,29.99,NNW,338,0.0,2.0,96,0.00,,---,0.00,VWS V14.01,2013-07-28 11:04:00,
2013-07-28 07:07:00,66.2,64.7,29.99,North,352,0.0,3.0,95,0.00,,---,0.00,VWS V14.01,2013-07-28 11:07:00,
2013-07-28 07:09:00,66.4,64.9,29.99,North,351,0.0,3.0,95,0.00,,---,0.00,VWS V14.01,2013-07-28 11:09:00,
2013-07-28 07:12:00,66.5,65.0,29.99,NNW,328,0.0,3.0,95,0.00,,---,0.00,VWS V14.01,2013-07-28 11:12:00,
2013-07-28 07:13:00,66.6,65.1,29.99,NNW,328,0.0,3.0,95,0.00,,---,0.00,VWS V14.01,2013-07-28 11:13:00,
2013-07-28 07:14:00,66.6,65.1,29.99,NNW,328,0.0,3.0,95,0.00,,---,0.00,VWS V14.01,2013-07-28 11:14:00,
2013-07-28 07:15:00,66.6,65.1,29.99,NNW,328,0.0,3.0,95,0.00,,---,0.00,VWS V14.01,2013-07-28 11:15:00,
2013-07-28 07:18:00,66.7,64.9,29.99,NNW,342,0.0,3.0,94,0.00,,---,0.00,VWS V14.01,2013-07-28 11:18:00,
2013-07-28 07:20:00,66.7,64.9,29.99,NNW,342,0.0,3.0,94,0.00,,---,0.00,VWS V14.01,2013-07-28 11:20:00,
2013-07-28 07:23:00,66.8,65.0,29.99,NNW,342,0.0,3.0,94,0.00,,---,0.00,VWS V14.01,2013-07-28 11:23:00,
2013-07-28 07:24:00,66.8,65.0,29.99,NNW,342,0.0,3.0,94,0.00,,---,0.00,VWS V14.01,2013-07-28 11:24:00,
2013-07-28 07:25:00,66.9,65.1,29.99,NNW,342,0.0,3.0,94,0.00,,---,0.00,VWS V14.01,2013-07-28 11:25:00,
2013-07-28 07:26:00,66.9,65.1,29.99,NNW,342,0.0,3.0,94,0.00,,---,0.00,VWS V14.01,2013-07-28 11:26:00,
2013-07-28 07:29:00,67.0,65.2,29.99,NNW,341,0.0,0.0,94,0.00,,---,0.00,VWS V14.01,2013-07-28 11:29:00,
2013-07-28 07:30:00,67.0,64.9,29.99,NNW,341,0.0,0.0,93,0.00,,---,0.00,VWS V14.01,2013-07-28 11:30:00,
2013-07-28 07:31:00,67.0,64.9,29.99,NNW,341,0.0,0.0,93,0.00,,---,0.00,VWS V14.01,2013-07-28 11:31:00,
2013-07-28 07:32:00,67.1,65.0,29.99,NNW,341,0.0,0.0,93,0.00,,---,0.00,VWS V14.01,2013-07-28 11:32:00,
2013-07-28 07:35:00,67.2,65.1,30.00,NNW,342,0.0,0.0,93,0.00,,---,0.00,VWS V14.01,2013-07-28 11:35:00,
2013-07-28 07:36:00,67.2,65.1,30.00,NNW,342,0.0,0.0,93,0.00,,---,0.00,VWS V14.01,2013-07-28 11:36:00,
2013-07-28 07:39:00,67.4,65.3,29.99,NNW,340,0.0,0.0,93,0.00,,---,0.00,VWS V14.01,2013-07-28 11:39:00,
2013-07-28 07:40:00,67.4,65.3,29.99,North,352,0.0,0.0,93,0.00,,---,0.00,VWS V14.01,2013-07-28 11:40:00,
2013-07-28 07:41:00,67.4,65.3,29.99,North,352,0.0,0.0,93,0.00,,---,0.00,VWS V14.01,2013-07-28 11:41:00,
2013-07-28 07:42:00,67.5,65.4,29.99,North,352,0.0,0.0,93,0.00,,---,0.00,VWS V14.01,2013-07-28 11:42:00,
2013-07-28 07:45:00,67.6,65.5,29.99,North,352,0.0,2.0,93,0.00,,---,0.00,VWS V14.01,2013-07-28 11:45:00,
2013-07-28 07:47:00,67.7,65.6,30.00,North,352,0.0,2.0,93,0.00,,---,0.00,VWS V14.01,2013-07-28 11:47:00,
2013-07-28 07:48:00,67.7,65.6,30.00,North,359,2.0,2.0,93,0.00,,---,0.00,VWS V14.01,2013-07-28 11:48:00,
2013-07-28 07:49:00,67.7,65.3,30.00,NNW,343,2.0,3.0,92,0.00,,---,0.00,VWS V14.01,2013-07-28 11:49:00,
2013-07-28 07:51:00,67.8,65.4,30.00,NNW,345,1.0,3.0,92,0.00,,---,0.00,VWS V14.01,2013-07-28 11:51:00,
2013-07-28 07:52:00,67.8,65.4,30.00,NNW,347,1.0,3.0,92,0.00,,---,0.00,VWS V14.01,2013-07-28 11:52:00,
2013-07-28 07:53:00,67.9,65.5,30.00,North,349,1.0,3.0,92,0.00,,---,0.00,VWS V14.01,2013-07-28 11:53:00,
2013-07-28 07:55:00,67.9,65.5,30.00,North,349,1.0,3.0,92,0.00,,---,0.00,VWS V14.01,2013-07-28 11:55:00,
2013-07-28 07:57:00,67.9,65.5,30.00,NNW,336,1.0,3.0,92,0.00,,---,0.00,VWS V14.01,2013-07-28 11:57:00,
2013-07-28 07:59:00,67.9,65.5,30.00,NNW,336,0.0,0.0,92,0.00,,---,0.00,VWS V14.01,2013-07-28 11:59:00,
2013-07-28 08:01:00,68.0,65.6,30.00,NNW,337,0.0,1.0,92,0.00,,---,0.00,VWS V14.01,2013-07-28 12:01:00,
2013-07-28 08:03:00,68.1,65.7,29.99,North,352,2.0,3.0,92,0.00,,---,0.00,VWS V14.01,2013-07-28 12:03:00,
2013-07-28 08:04:00,68.1,65.7,30.00,NW,316,2.0,3.0,92,0.00,,---,0.00,VWS V14.01,2013-07-28 12:04:00,
2013-07-28 08:05:00,68.1,65.7,30.00,NW,316,1.0,3.0,92,0.00,,---,0.00,VWS V14.01,2013-07-28 12:05:00,
2013-07-28 08:06:00,68.1,65.7,30.00,NW,316,0.0,3.0,92,0.00,,---,0.00,VWS V14.01,2013-07-28 12:06:00,
2013-07-28 08:09:00,68.2,65.5,29.99,North,349,3.0,3.0,91,0.00,,---,0.00,VWS V14.01,2013-07-28 12:09:00,
2013-07-28 08:10:00,68.2,65.5,29.99,North,9,2.0,3.0,91,0.00,,---,0.00,VWS V14.01,2013-07-28 12:10:00,
2013-07-28 08:11:00,68.2,65.5,29.99,North,354,1.0,3.0,91,0.00,,---,0.00,VWS V14.01,2013-07-28 12:11:00,
2013-07-28 08:13:00,68.3,65.6,29.99,North,356,0.0,3.0,91,0.00,,---,0.00,VWS V14.01,2013-07-28 12:13:00,
2013-07-28 08:14:00,68.3,65.6,29.99,NNW,328,0.0,3.0,91,0.00,,---,0.00,VWS V14.01,2013-07-28 12:14:00,
2013-07-28 08:15:00,68.4,65.7,29.99,NNW,328,1.0,3.0,91,0.00,,---,0.00,VWS V14.01,2013-07-28 12:15:00,
2013-07-28 08:16:00,68.4,65.7,29.99,NNW,328,0.0,3.0,91,0.00,,---,0.00,VWS V14.01,2013-07-28 12:16:00,
2013-07-28 08:18:00,68.7,66.0,29.99,NNW,330,0.0,3.0,91,0.00,,---,0.00,VWS V14.01,2013-07-28 12:18:00,
2013-07-28 08:19:00,68.8,66.1,30.00,NNW,330,0.0,3.0,91,0.00,,---,0.00,VWS V14.01,2013-07-28 12:19:00,
2013-07-28 08:20:00,68.9,66.2,30.00,NNW,330,0.0,3.0,91,0.00,,---,0.00,VWS V14.01,2013-07-28 12:20:00,
2013-07-28 08:21:00,69.0,66.3,30.00,NNE,18,0.0,3.0,91,0.00,,---,0.00,VWS V14.01,2013-07-28 12:21:00,
2013-07-28 08:22:00,69.1,66.4,30.00,NNE,18,0.0,3.0,91,0.00,,---,0.00,VWS V14.01,2013-07-28 12:22:00,
2013-07-28 08:23:00,69.2,66.2,30.00,NNE,18,0.0,3.0,90,0.00,,---,0.00,VWS V14.01,2013-07-28 12:23:00,
2013-07-28 08:25:00,69.4,66.3,29.99,NNE,18,0.0,3.0,90,0.00,,---,0.00,VWS V14.01,2013-07-28 12:25:00,
2013-07-28 08:27:00,69.7,66.6,29.99,NNE,25,1.0,3.0,90,0.00,,---,0.00,VWS V14.01,2013-07-28 12:27:00,
2013-07-28 08:29:00,69.8,66.4,30.00,ENE,68,0.0,1.0,89,0.00,,---,0.00,VWS V14.01,2013-07-28 12:29:00,
2013-07-28 08:30:00,69.9,66.5,30.00,NW,313,1.0,1.0,89,0.00,,---,0.00,VWS V14.01,2013-07-28 12:30:00,
2013-07-28 08:32:00,70.0,66.6,30.00,NW,313,0.0,1.0,89,0.00,,---,0.00,VWS V14.01,2013-07-28 12:32:00,
2013-07-28 08:33:00,70.2,66.8,30.00,NNE,21,0.0,1.0,89,0.00,,---,0.00,VWS V14.01,2013-07-28 12:33:00,
2013-07-28 08:34:00,70.3,66.9,30.00,NNE,22,0.0,1.0,89,0.00,,---,0.00,VWS V14.01,2013-07-28 12:34:00,
2013-07-28 08:36:00,70.5,66.8,30.00,NNE,25,0.0,1.0,88,0.00,,---,0.00,VWS V14.01,2013-07-28 12:36:00,
2013-07-28 08:37:00,70.7,66.7,30.00,North,9,1.0,1.0,87,0.00,,---,0.00,VWS V14.01,2013-07-28 12:37:00,
2013-07-28 08:38:00,70.8,66.7,30.00,North,9,0.0,1.0,87,0.00,,---,0.00,VWS V14.01,2013-07-28 12:38:00,
2013-07-28 08:39:00,70.9,66.5,30.00,North,9,0.0,1.0,86,0.00,,---,0.00,VWS V14.01,2013-07-28 12:39:00,
2013-07-28 08:43:00,70.9,66.5,30.00,North,350,0.0,3.0,86,0.00,,---,0.00,VWS V14.01,2013-07-28 12:43:00,
2013-07-28 08:44:00,70.9,66.5,30.00,North,350,0.0,3.0,86,0.00,,---,0.00,VWS V14.01,2013-07-28 12:44:00,
2013-07-28 08:45:00,70.9,66.5,30.00,North,350,0.0,3.0,86,0.00,,---,0.00,VWS V14.01,2013-07-28 12:45:00,
2013-07-28 08:46:00,71.0,66.6,30.00,North,353,0.0,3.0,86,0.00,,---,0.00,VWS V14.01,2013-07-28 12:46:00,
2013-07-28 08:48:00,71.1,66.7,30.00,North,357,1.0,3.0,86,0.00,,---,0.00,VWS V14.01,2013-07-28 12:48:00,
2013-07-28 08:49:00,71.1,66.4,30.00,North,354,0.0,3.0,85,0.00,,---,0.00,VWS V14.01,2013-07-28 12:49:00,
2013-07-28 08:50:00,71.1,66.4,30.00,North,350,0.0,3.0,85,0.00,,---,0.00,VWS V14.01,2013-07-28 12:50:00,
2013-07-28 08:51:00,71.1,66.4,30.00,NNW,347,0.0,3.0,85,0.00,,---,0.00,VWS V14.01,2013-07-28 12:51:00,
2013-07-28 08:54:00,71.3,66.6,29.99,North,357,2.0,3.0,85,0.00,,---,0.00,VWS V14.01,2013-07-28 12:54:00,
2013-07-28 08:55:00,71.5,66.8,30.00,North,3,0.0,3.0,85,0.00,,---,0.00,VWS V14.01,2013-07-28 12:55:00,
2013-07-28 08:56:00,71.5,66.8,30.00,North,1,0.0,3.0,85,0.00,,---,0.00,VWS V14.01,2013-07-28 12:56:00,
2013-07-28 08:57:00,71.7,66.9,30.00,NNW,335,2.0,3.0,85,0.00,,---,0.00,VWS V14.01,2013-07-28 12:57:00,
2013-07-28 09:00:00,71.9,66.8,29.99,NNE,32,0.0,5.0,84,0.00,,---,0.00,VWS V14.01,2013-07-28 13:00:00,
2013-07-28 09:01:00,71.9,66.8,29.99,North,360,2.0,5.0,84,0.00,,---,0.00,VWS V14.01,2013-07-28 13:01:00,
2013-07-28 09:02:00,72.0,66.6,29.99,NNW,338,2.0,5.0,83,0.00,,---,0.00,VWS V14.01,2013-07-28 13:02:00,
2013-07-28 09:03:00,72.0,66.6,29.99,NNW,340,3.0,5.0,83,0.00,,---,0.00,VWS V14.01,2013-07-28 13:03:00,
2013-07-28 09:06:00,71.9,66.5,29.99,NNW,332,0.0,5.0,83,0.00,,---,0.00,VWS V14.01,2013-07-28 13:06:00,
2013-07-28 09:07:00,72.0,66.9,29.99,NNW,331,0.0,5.0,84,0.00,,---,0.00,VWS V14.01,2013-07-28 13:07:00,
2013-07-28 09:08:00,72.1,67.0,29.99,NW,319,0.0,5.0,84,0.00,,---,0.00,VWS V14.01,2013-07-28 13:08:00,
2013-07-28 09:11:00,72.5,67.1,29.99,ENE,62,1.0,5.0,83,0.00,,---,0.00,VWS V14.01,2013-07-28 13:11:00,
2013-07-28 09:12:00,72.5,67.1,29.99,ENE,62,0.0,5.0,83,0.00,,---,0.00,VWS V14.01,2013-07-28 13:12:00,
2013-07-28 09:13:00,72.6,67.2,29.99,ENE,57,1.0,5.0,83,0.00,,---,0.00,VWS V14.01,2013-07-28 13:13:00,
2013-07-28 09:16:00,72.6,66.8,29.99,NW,325,1.0,5.0,82,0.00,,---,0.00,VWS V14.01,2013-07-28 13:16:00,
2013-07-28 09:17:00,72.6,66.8,29.99,North,8,0.0,5.0,82,0.00,,---,0.00,VWS V14.01,2013-07-28 13:17:00,
2013-07-28 09:18:00,72.7,66.9,29.99,NNW,347,3.0,5.0,82,0.00,,---,0.00,VWS V14.01,2013-07-28 13:18:00,
2013-07-28 09:19:00,72.8,67.0,29.99,NNW,347,0.0,5.0,82,0.00,,---,0.00,VWS V14.01,2013-07-28 13:19:00,
2013-07-28 09:22:00,73.1,66.9,29.99,WNW,302,2.0,5.0,81,0.00,,---,0.00,VWS V14.01,2013-07-28 13:22:00,
2013-07-28 09:23:00,73.2,67.0,29.99,NW,314,0.0,5.0,81,0.00,,---,0.00,VWS V14.01,2013-07-28 13:23:00,
2013-07-28 09:24:00,73.3,67.1,29.99,NW,313,0.0,5.0,81,0.00,,---,0.00,VWS V14.01,2013-07-28 13:24:00,
2013-07-28 09:25:00,73.4,67.2,29.99,NW,314,0.0,5.0,81,0.00,,---,0.00,VWS V14.01,2013-07-28 13:25:00,
2013-07-28 09:27:00,73.5,67.3,29.99,East,86,3.0,5.0,81,0.00,,---,0.00,VWS V14.01,2013-07-28 13:27:00,
2013-07-28 09:28:00,73.4,66.9,29.99,ENE,68,3.0,5.0,80,0.00,,---,0.00,VWS V14.01,2013-07-28 13:28:00,
2013-07-28 09:29:00,73.3,67.1,29.99,East,79,3.0,3.0,81,0.00,,---,0.00,VWS V14.01,2013-07-28 13:29:00,
2013-07-28 09:30:00,73.1,66.9,29.99,NE,50,1.0,3.0,81,0.00,,---,0.00,VWS V14.01,2013-07-28 13:30:00,
2013-07-28 09:32:00,73.4,67.2,29.99,NE,55,0.0,4.0,81,0.00,,---,0.00,VWS V14.01,2013-07-28 13:32:00,
2013-07-28 09:35:00,73.6,67.1,29.99,East,87,2.0,4.0,80,0.00,,---,0.00,VWS V14.01,2013-07-28 13:35:00,
2013-07-28 09:37:00,73.6,67.4,29.99,ENE,77,5.0,5.0,81,0.00,,---,0.00,VWS V14.01,2013-07-28 13:37:00,
2013-07-28 09:38:00,73.6,67.1,29.99,ENE,68,5.0,5.0,80,0.00,,---,0.00,VWS V14.01,2013-07-28 13:38:00,
2013-07-28 09:40:00,73.7,67.2,29.99,ESE,103,2.0,5.0,80,0.00,,---,0.00,VWS V14.01,2013-07-28 13:40:00,
2013-07-28 09:41:00,73.6,66.7,29.99,ESE,103,2.0,5.0,79,0.00,,---,0.00,VWS V14.01,2013-07-28 13:41:00,
2013-07-28 09:42:00,73.6,66.7,29.99,North,357,1.0,5.0,79,0.00,,---,0.00,VWS V14.01,2013-07-28 13:42:00,
2013-07-28 09:43:00,73.7,66.8,29.99,NNE,18,1.0,5.0,79,0.00,,---,0.00,VWS V14.01,2013-07-28 13:43:00,
2013-07-28 09:44:00,73.9,67.3,29.99,East,91,4.0,5.0,80,0.00,,---,0.00,VWS V14.01,2013-07-28 13:44:00,
2013-07-28 09:46:00,73.7,67.2,30.00,East,96,4.0,5.0,80,0.00,,---,0.00,VWS V14.01,2013-07-28 13:46:00,
2013-07-28 09:47:00,73.5,67.0,30.00,ENE,77,4.0,5.0,80,0.00,,---,0.00,VWS V14.01,2013-07-28 13:47:00,
2013-07-28 09:48:00,73.3,67.1,30.00,ENE,59,4.0,6.0,81,0.00,,---,0.00,VWS V14.01,2013-07-28 13:48:00,
2013-07-28 09:49:00,73.2,67.0,30.00,East,84,5.0,6.0,81,0.00,,---,0.00,VWS V14.01,2013-07-28 13:49:00,
2013-07-28 09:52:00,73.0,66.5,30.00,ENE,62,2.0,6.0,80,0.00,,---,0.00,VWS V14.01,2013-07-28 13:52:00,
2013-07-28 09:53:00,73.0,67.2,29.99,ENE,62,1.0,6.0,82,0.00,,---,0.00,VWS V14.01,2013-07-28 13:53:00,
2013-07-28 09:54:00,73.1,67.3,29.99,NNW,336,0.0,6.0,82,0.00,,---,0.00,VWS V14.01,2013-07-28 13:54:00,
2013-07-28 09:55:00,73.4,67.6,29.99,NNW,340,1.0,6.0,82,0.00,,---,0.00,VWS V14.01,2013-07-28 13:55:00,
2013-07-28 09:57:00,74.1,67.5,29.99,East,83,2.0,6.0,80,0.00,,---,0.00,VWS V14.01,2013-07-28 13:57:00,
2013-07-28 09:58:00,74.3,67.7,29.99,ENE,68,1.0,6.0,80,0.00,,---,0.00,VWS V14.01,2013-07-28 13:58:00,
2013-07-28 10:00:00,75.0,67.7,29.99,NE,53,2.0,3.0,78,0.00,,---,0.00,VWS V14.01,2013-07-28 14:00:00,
2013-07-28 10:03:00,75.8,68.1,29.99,NNW,334,1.0,3.0,77,0.00,,---,0.00,VWS V14.01,2013-07-28 14:03:00,
2013-07-28 10:05:00,76.6,68.1,29.99,East,85,3.0,3.0,75,0.00,,---,0.00,VWS V14.01,2013-07-28 14:05:00,
2013-07-28 10:06:00,76.7,68.2,30.00,NE,52,4.0,5.0,75,0.00,,---,0.00,VWS V14.01,2013-07-28 14:06:00,
2013-07-28 10:07:00,76.6,67.3,29.99,ENE,72,4.0,6.0,73,0.00,,---,0.00,VWS V14.01,2013-07-28 14:07:00,
2013-07-28 10:08:00,76.4,67.1,29.99,ENE,68,4.0,6.0,73,0.00,,---,0.00,VWS V14.01,2013-07-28 14:08:00,
2013-07-28 10:09:00,76.0,66.7,29.99,NNE,25,1.0,6.0,73,0.00,,---,0.00,VWS V14.01,2013-07-28 14:09:00,
2013-07-28 10:11:00,76.0,67.5,29.99,East,96,1.0,6.0,75,0.00,,---,0.00,VWS V14.01,2013-07-28 14:11:00,
2013-07-28 10:12:00,76.1,67.6,30.00,ENE,77,4.0,6.0,75,0.00,,---,0.00,VWS V14.01,2013-07-28 14:12:00,
2013-07-28 10:14:00,76.1,68.4,29.99,ENE,65,1.0,6.0,77,0.00,,---,0.00,VWS V14.01,2013-07-28 14:14:00,
2013-07-28 10:15:00,76.1,68.4,29.99,NNW,328,1.0,6.0,77,0.00,,---,0.00,VWS V14.01,2013-07-28 14:15:00,
2013-07-28 10:16:00,76.4,67.9,29.99,NNE,25,3.0,6.0,75,0.00,,---,0.00,VWS V14.01,2013-07-28 14:16:00,
2013-07-28 10:18:00,77.0,68.1,29.99,ESE,113,1.0,6.0,74,0.00,,---,0.00,VWS V14.01,2013-07-28 14:18:00,
2013-07-28 10:19:00,77.1,68.2,29.99,ENE,72,3.0,6.0,74,0.00,,---,0.00,VWS V14.01,2013-07-28 14:19:00,
2013-07-28 10:20:00,77.1,67.4,29.99,East,96,1.0,6.0,72,0.00,,---,0.00,VWS V14.01,2013-07-28 14:20:00,
2013-07-28 10:23:00,77.0,68.1,29.99,East,94,2.0,6.0,74,0.00,,---,0.00,VWS V14.01,2013-07-28 14:23:00,
2013-07-28 10:24:00,77.1,67.4,29.99,ENE,62,3.0,6.0,72,0.00,,---,0.00,VWS V14.01,2013-07-28 14:24:00,
2013-07-28 10:25:00,77.0,67.3,29.99,East,87,3.0,6.0,72,0.00,,---,0.00,VWS V14.01,2013-07-28 14:25:00,
2013-07-28 10:26:00,77.0,67.3,29.99,East,94,4.0,6.0,72,0.00,,---,0.00,VWS V14.01,2013-07-28 14:26:00,
2013-07-28 10:28:00,76.6,66.9,29.99,ENE,60,3.0,3.0,72,0.00,,---,0.00,VWS V14.01,2013-07-28 14:28:00,
2013-07-28 10:29:00,76.6,66.5,29.99,ENE,60,2.0,4.0,71,0.00,,---,0.00,VWS V14.01,2013-07-28 14:29:00,
2013-07-28 10:30:00,76.6,66.5,29.99,NE,53,1.0,4.0,71,0.00,,---,0.00,VWS V14.01,2013-07-28 14:30:00,
2013-07-28 10:31:00,76.7,66.6,29.99,NNE,13,0.0,4.0,71,0.00,,---,0.00,VWS V14.01,2013-07-28 14:31:00,
2013-07-28 10:32:00,76.8,66.7,29.99,North,11,0.0,4.0,71,0.00,,---,0.00,VWS V14.01,2013-07-28 14:32:00,
2013-07-28 10:34:00,77.5,66.9,29.99,WNW,293,1.0,5.0,70,0.00,,---,0.00,VWS V14.01,2013-07-28 14:34:00,
2013-07-28 10:35:00,77.6,67.1,29.99,NNW,339,4.0,5.0,70,0.00,,---,0.00,VWS V14.01,2013-07-28 14:35:00,
2013-07-28 10:36:00,77.7,66.7,29.99,North,1,1.0,5.0,69,0.00,,---,0.00,VWS V14.01,2013-07-28 14:36:00,
2013-07-28 10:37:00,77.8,67.2,29.99,North,11,1.0,5.0,70,0.00,,---,0.00,VWS V14.01,2013-07-28 14:37:00,
2013-07-28 10:39:00,77.7,66.7,29.99,East,84,6.0,6.0,69,0.00,,---,0.00,VWS V14.01,2013-07-28 14:39:00,
2013-07-28 10:40:00,77.5,66.9,29.99,ENE,60,3.0,7.0,70,0.00,,---,0.00,VWS V14.01,2013-07-28 14:40:00,
2013-07-28 10:42:00,77.4,66.9,29.99,ENE,69,0.0,7.0,70,0.00,,---,0.00,VWS V14.01,2013-07-28 14:42:00,
2013-07-28 10:45:00,78.2,67.2,29.99,East,82,3.0,7.0,69,0.00,,---,0.00,VWS V14.01,2013-07-28 14:45:00,
2013-07-28 10:47:00,78.2,66.4,29.99,NNW,333,1.0,7.0,67,0.00,,---,0.00,VWS V14.01,2013-07-28 14:47:00,
2013-07-28 10:48:00,78.2,66.8,29.99,ESE,103,4.0,7.0,68,0.00,,---,0.00,VWS V14.01,2013-07-28 14:48:00,
2013-07-28 10:52:00,78.5,67.5,29.98,North,6,1.0,7.0,69,0.00,,---,0.00,VWS V14.01,2013-07-28 14:52:00,
2013-07-28 10:53:00,78.8,67.8,29.98,NNE,25,4.0,7.0,69,0.00,,---,0.00,VWS V14.01,2013-07-28 14:53:00,
2013-07-28 10:54:00,79.0,67.6,29.98,NNW,328,1.0,7.0,68,0.00,,---,0.00,VWS V14.01,2013-07-28 14:54:00,
2013-07-28 10:58:00,79.9,67.1,29.98,North,5,5.0,7.0,65,0.00,,---,0.00,VWS V14.01,2013-07-28 14:58:00,
2013-07-28 10:59:00,79.8,67.0,29.99,NNE,18,3.0,6.0,65,0.00,,---,0.00,VWS V14.01,2013-07-28 14:59:00,
2013-07-28 11:00:00,79.7,67.3,29.99,North,1,3.0,6.0,66,0.00,,---,0.00,VWS V14.01,2013-07-28 15:00:00,
2013-07-28 11:03:00,79.8,67.9,29.98,NE,36,1.0,6.0,67,0.00,,---,0.00,VWS V14.01,2013-07-28 15:03:00,
2013-07-28 11:04:00,79.9,68.0,29.98,NNE,30,0.0,6.0,67,0.00,,---,0.00,VWS V14.01,2013-07-28 15:04:00,
2013-07-28 11:06:00,80.3,67.5,29.98,NNW,333,0.0,6.0,65,0.00,,---,0.00,VWS V14.01,2013-07-28 15:06:00,
2013-07-28 11:09:00,80.9,68.5,29.98,East,84,0.0,6.0,66,0.00,,---,0.00,VWS V14.01,2013-07-28 15:09:00,
2013-07-28 11:10:00,81.6,68.2,29.98,NNW,342,1.0,6.0,64,0.00,,---,0.00,VWS V14.01,2013-07-28 15:10:00,
2013-07-28 11:12:00,81.9,67.6,29.98,NNW,348,3.0,6.0,62,0.00,,---,0.00,VWS V14.01,2013-07-28 15:12:00,
2013-07-28 11:14:00,82.1,68.3,29.98,NNE,15,1.0,6.0,63,0.00,,---,0.00,VWS V14.01,2013-07-28 15:14:00,
2013-07-28 11:15:00,82.3,68.5,29.98,NNW,345,1.0,6.0,63,0.00,,---,0.00,VWS V14.01,2013-07-28 15:15:00,
2013-07-28 11:16:00,82.6,68.3,29.98,East,87,3.0,6.0,62,0.00,,---,0.00,VWS V14.01,2013-07-28 15:16:00,
2013-07-28 11:18:00,81.9,67.1,29.98,ESE,123,3.0,7.0,61,0.00,,---,0.00,VWS V14.01,2013-07-28 15:18:00,
2013-07-28 11:20:00,81.0,66.8,29.98,SE,131,3.0,7.0,62,0.00,,---,0.00,VWS V14.01,2013-07-28 15:20:00,
2013-07-28 11:21:00,80.4,67.1,29.98,East,96,6.0,7.0,64,0.00,,---,0.00,VWS V14.01,2013-07-28 15:21:00,
2013-07-28 11:22:00,79.8,67.4,29.98,ENE,71,3.0,7.0,66,0.00,,---,0.00,VWS V14.01,2013-07-28 15:22:00,
2013-07-28 11:23:00,79.5,67.6,29.98,ENE,70,3.0,7.0,67,0.00,,---,0.00,VWS V14.01,2013-07-28 15:23:00,
2013-07-28 11:25:00,79.1,67.2,29.98,ENE,59,5.0,9.0,67,0.00,,---,0.00,VWS V14.01,2013-07-28 15:25:00,
2013-07-28 11:26:00,78.9,67.0,29.98,ENE,77,5.0,9.0,67,0.00,,---,0.00,VWS V14.01,2013-07-28 15:26:00,
2013-07-28 11:28:00,78.5,67.1,29.98,East,93,8.0,11.0,68,0.00,,---,0.00,VWS V14.01,2013-07-28 15:28:00,
2013-07-28 11:29:00,78.2,66.4,29.98,East,101,8.0,11.0,67,0.00,,---,0.00,VWS V14.01,2013-07-28 15:29:00,
2013-07-28 11:30:00,77.9,66.9,29.98,ENE,63,6.0,11.0,69,0.00,,---,0.00,VWS V14.01,2013-07-28 15:30:00,
2013-07-28 11:32:00,77.8,66.8,29.98,ENE,75,6.0,11.0,69,0.00,,---,0.00,VWS V14.01,2013-07-28 15:32:00,
2013-07-28 11:34:00,77.7,67.1,29.98,East,93,8.0,11.0,70,0.00,,---,0.00,VWS V14.01,2013-07-28 15:34:00,
2013-07-28 11:35:00,77.6,67.1,29.98,East,82,5.0,11.0,70,0.00,,---,0.00,VWS V14.01,2013-07-28 15:35:00,
2013-07-28 11:37:00,77.5,66.9,29.98,ENE,65,4.0,11.0,70,0.00,,---,0.00,VWS V14.01,2013-07-28 15:37:00,
2013-07-28 11:40:00,77.8,67.7,29.98,ENE,77,6.0,11.0,71,0.00,,---,0.00,VWS V14.01,2013-07-28 15:40:00,
2013-07-28 11:41:00,77.8,67.2,29.97,NE,47,5.0,11.0,70,0.00,,---,0.00,VWS V14.01,2013-07-28 15:41:00,
2013-07-28 11:43:00,77.8,67.2,29.97,NE,51,9.0,11.0,70,0.00,,---,0.00,VWS V14.01,2013-07-28 15:43:00,
2013-07-28 11:45:00,77.9,67.8,29.97,ENE,64,8.0,11.0,71,0.00,,---,0.00,VWS V14.01,2013-07-28 15:45:00,
2013-07-28 11:46:00,77.9,67.8,29.97,NNE,33,4.0,11.0,71,0.00,,---,0.00,VWS V14.01,2013-07-28 15:46:00,
2013-07-28 11:47:00,77.9,67.8,29.97,ENE,58,6.0,11.0,71,0.00,,---,0.00,VWS V14.01,2013-07-28 15:47:00,
2013-07-28 11:48:00,78.0,68.2,29.97,ENE,67,6.0,11.0,72,0.00,,---,0.00,VWS V14.01,2013-07-28 15:48:00,
2013-07-28 11:49:00,78.0,68.2,29.97,ENE,58,3.0,11.0,72,0.00,,---,0.00,VWS V14.01,2013-07-28 15:49:00,
2013-07-28 11:51:00,78.1,68.3,29.97,NE,51,2.0,11.0,72,0.00,,---,0.00,VWS V14.01,2013-07-28 15:51:00,
2013-07-28 11:53:00,78.3,68.1,29.97,NNE,28,2.0,11.0,71,0.00,,---,0.00,VWS V14.01,2013-07-28 15:53:00,
2013-07-28 11:54:00,78.3,67.7,29.97,ENE,59,1.0,11.0,70,0.00,,---,0.00,VWS V14.01,2013-07-28 15:54:00,
2013-07-28 11:56:00,78.6,68.0,29.97,ENE,60,2.0,11.0,70,0.00,,---,0.00,VWS V14.01,2013-07-28 15:56:00,
2013-07-28 11:57:00,78.6,68.0,29.97,NE,40,3.0,11.0,70,0.00,,---,0.00,VWS V14.01,2013-07-28 15:57:00,
2013-07-28 11:58:00,78.6,68.0,29.97,ENE,60,6.0,11.0,70,0.00,,---,0.00,VWS V14.01,2013-07-28 15:58:00,
2013-07-28 11:59:00,78.5,67.9,29.97,ENE,72,6.0,8.0,70,0.00,,---,0.00,VWS V14.01,2013-07-28 15:59:00,
2013-07-28 12:00:00,78.3,67.7,29.97,ENE,72,8.0,11.0,70,0.00,,---,0.00,VWS V14.01,2013-07-28 16:00:00,
2013-07-28 12:02:00,77.8,67.7,29.97,ENE,58,5.0,11.0,71,0.00,,---,0.00,VWS V14.01,2013-07-28 16:02:00,
2013-07-28 12:03:00,77.7,68.0,29.97,ENE,63,2.0,11.0,72,0.00,,---,0.00,VWS V14.01,2013-07-28 16:03:00,
2013-07-28 12:04:00,77.6,67.9,29.97,NE,52,3.0,11.0,72,0.00,,---,0.00,VWS V14.01,2013-07-28 16:04:00,
2013-07-28 12:06:00,77.6,67.9,29.97,ENE,60,6.0,11.0,72,0.00,,---,0.00,VWS V14.01,2013-07-28 16:06:00,
2013-07-28 12:07:00,77.6,67.5,29.97,ENE,76,6.0,11.0,71,0.00,,---,0.00,VWS V14.01,2013-07-28 16:07:00,
2013-07-28 12:08:00,77.6,67.5,29.97,East,85,7.0,11.0,71,0.00,,---,0.00,VWS V14.01,2013-07-28 16:08:00,
2013-07-28 12:09:00,77.5,67.8,29.97,ENE,75,7.0,11.0,72,0.00,,---,0.00,VWS V14.01,2013-07-28 16:09:00,
2013-07-28 12:10:00,77.5,67.8,29.97,East,99,5.0,11.0,72,0.00,,---,0.00,VWS V14.01,2013-07-28 16:10:00,
2013-07-28 12:11:00,77.6,67.9,29.97,NE,50,4.0,11.0,72,0.00,,---,0.00,VWS V14.01,2013-07-28 16:11:00,
2013-07-28 12:13:00,77.7,68.0,29.97,NNE,22,1.0,11.0,72,0.00,,---,0.00,VWS V14.01,2013-07-28 16:13:00,
2013-07-28 12:15:00,77.9,68.2,29.97,NE,48,3.0,11.0,72,0.00,,---,0.00,VWS V14.01,2013-07-28 16:15:00,
2013-07-28 12:16:00,78.1,68.8,29.97,NNE,29,2.0,11.0,73,0.00,,---,0.00,VWS V14.01,2013-07-28 16:16:00,
2013-07-28 12:18:00,78.3,68.5,29.97,NE,41,2.0,11.0,72,0.00,,---,0.00,VWS V14.01,2013-07-28 16:18:00,
2013-07-28 12:19:00,78.4,68.2,29.97,East,84,5.0,11.0,71,0.00,,---,0.00,VWS V14.01,2013-07-28 16:19:00,
2013-07-28 12:20:00,78.4,68.2,29.97,ENE,77,5.0,11.0,71,0.00,,---,0.00,VWS V14.01,2013-07-28 16:20:00,
2013-07-28 12:22:00,78.4,68.2,29.97,NE,52,4.0,11.0,71,0.00,,---,0.00,VWS V14.01,2013-07-28 16:22:00,
2013-07-28 12:23:00,78.2,68.0,29.97,NE,44,4.0,11.0,71,0.00,,---,0.00,VWS V14.01,2013-07-28 16:23:00,
2013-07-28 12:24:00,78.1,68.3,29.97,NNE,22,3.0,11.0,72,0.00,,---,0.00,VWS V14.01,2013-07-28 16:24:00,
2013-07-28 12:25:00,78.0,68.2,29.97,ENE,60,2.0,11.0,72,0.00,,---,0.00,VWS V14.01,2013-07-28 16:25:00,
2013-07-28 12:27:00,77.9,68.6,29.97,NE,35,1.0,11.0,73,0.00,,---,0.00,VWS V14.01,2013-07-28 16:27:00,
2013-07-28 12:28:00,78.0,68.7,29.97,NE,46,2.0,2.0,73,0.00,,---,0.00,VWS V14.01,2013-07-28 16:28:00,
2013-07-28 12:29:00,78.2,68.8,29.97,NE,46,7.0,7.0,73,0.00,,---,0.00,VWS V14.01,2013-07-28 16:29:00,
2013-07-28 12:30:00,78.3,68.5,29.97,NNW,337,1.0,7.0,72,0.00,,---,0.00,VWS V14.01,2013-07-28 16:30:00,
2013-07-28 12:34:00,78.7,68.5,29.96,NNE,13,2.0,7.0,71,0.00,,---,0.00,VWS V14.01,2013-07-28 16:34:00,
2013-07-28 12:35:00,78.9,68.7,29.97,ENE,72,4.0,7.0,71,0.00,,---,0.00,VWS V14.01,2013-07-28 16:35:00,
2013-07-28 12:36:00,78.9,68.3,29.96,ENE,58,5.0,10.0,70,0.00,,---,0.00,VWS V14.01,2013-07-28 16:36:00,
2013-07-28 12:37:00,78.8,68.2,29.96,ESE,121,5.0,10.0,70,0.00,,---,0.00,VWS V14.01,2013-07-28 16:37:00,
2013-07-28 12:40:00,78.4,68.2,29.96,NE,51,4.0,10.0,71,0.00,,---,0.00,VWS V14.01,2013-07-28 16:40:00,
2013-07-28 12:41:00,78.2,68.0,29.96,NE,51,7.0,10.0,71,0.00,,---,0.00,VWS V14.01,2013-07-28 16:41:00,
2013-07-28 12:42:00,77.8,68.1,29.96,East,84,6.0,10.0,72,0.00,,---,0.00,VWS V14.01,2013-07-28 16:42:00,
2013-07-28 12:43:00,77.7,68.0,29.96,ENE,62,9.0,10.0,72,0.00,,---,0.00,VWS V14.01,2013-07-28 16:43:00,
2013-07-28 12:45:00,77.3,68.0,29.96,NE,39,4.0,10.0,73,0.00,,---,0.00,VWS V14.01,2013-07-28 16:45:00,
2013-07-28 12:46:00,77.2,68.3,29.96,ENE,59,4.0,10.0,74,0.00,,---,0.00,VWS V14.01,2013-07-28 16:46:00,
2013-07-28 12:47:00,77.0,68.1,29.96,NE,39,2.0,10.0,74,0.00,,---,0.00,VWS V14.01,2013-07-28 16:47:00,
2013-07-28 12:48:00,76.9,68.4,29.96,NNE,32,5.0,10.0,75,0.00,,---,0.00,VWS V14.01,2013-07-28 16:48:00,
2013-07-28 12:49:00,76.8,67.9,29.96,ENE,60,4.0,10.0,74,0.00,,---,0.00,VWS V14.01,2013-07-28 16:49:00,
2013-07-28 12:50:00,76.7,68.2,29.96,NE,41,3.0,10.0,75,0.00,,---,0.00,VWS V14.01,2013-07-28 16:50:00,
2013-07-28 12:51:00,76.6,68.5,29.96,ENE,65,6.0,10.0,76,0.00,,---,0.00,VWS V14.01,2013-07-28 16:51:00,
2013-07-28 12:53:00,76.6,68.5,29.96,ENE,58,7.0,10.0,76,0.00,,---,0.00,VWS V14.01,2013-07-28 16:53:00,
2013-07-28 12:54:00,76.5,68.4,29.96,ENE,72,4.0,11.0,76,0.00,,---,0.00,VWS V14.01,2013-07-28 16:54:00,
2013-07-28 12:56:00,76.4,68.7,29.96,NE,42,8.0,11.0,77,0.00,,---,0.00,VWS V14.01,2013-07-28 16:56:00,
2013-07-28 12:57:00,76.4,68.7,29.96,ENE,72,5.0,11.0,77,0.00,,---,0.00,VWS V14.01,2013-07-28 16:57:00,
2013-07-28 12:58:00,76.4,69.0,29.96,East,81,4.0,11.0,78,0.00,,---,0.00,VWS V14.01,2013-07-28 16:58:00,
2013-07-28 13:00:00,76.4,68.7,29.97,NE,55,4.0,10.0,77,0.00,,---,0.00,VWS V14.01,2013-07-28 17:00:00,
2013-07-28 13:01:00,76.3,68.9,29.97,ENE,64,9.0,10.0,78,0.00,,---,0.00,VWS V14.01,2013-07-28 17:01:00,
2013-07-28 13:02:00,76.3,68.9,29.97,ENE,58,3.0,10.0,78,0.00,,---,0.00,VWS V14.01,2013-07-28 17:02:00,
2013-07-28 13:04:00,76.2,68.5,29.97,NE,44,7.0,10.0,77,0.00,,---,0.00,VWS V14.01,2013-07-28 17:04:00,
2013-07-28 13:06:00,75.9,68.6,29.97,ENE,74,6.0,11.0,78,0.00,,---,0.00,VWS V14.01,2013-07-28 17:06:00,
2013-07-28 13:07:00,75.9,68.6,29.97,ESE,105,8.0,11.0,78,0.00,,---,0.00,VWS V14.01,2013-07-28 17:07:00,
2013-07-28 13:08:00,75.8,68.5,29.97,ENE,70,10.0,12.0,78,0.00,,---,0.00,VWS V14.01,2013-07-28 17:08:00,
2013-07-28 13:12:00,75.3,68.3,29.97,East,96,9.0,15.0,79,0.00,,---,0.00,VWS V14.01,2013-07-28 17:12:00,
2013-07-28 13:13:00,75.2,68.6,29.97,ENE,60,17.0,17.0,80,0.00,,---,0.00,VWS V14.01,2013-07-28 17:13:00,
2013-07-28 13:17:00,75.1,68.9,29.97,ENE,62,6.0,17.0,81,0.00,,---,0.00,VWS V14.01,2013-07-28 17:17:00,
2013-07-28 13:18:00,75.3,69.1,29.97,NE,41,4.0,17.0,81,0.00,,---,0.00,VWS V14.01,2013-07-28 17:18:00,
2013-07-28 13:22:00,75.2,68.6,29.97,ENE,57,9.0,17.0,80,0.00,,---,0.00,VWS V14.01,2013-07-28 17:22:00,
2013-07-28 13:23:00,75.2,69.0,29.97,ENE,72,5.0,17.0,81,0.00,,---,0.00,VWS V14.01,2013-07-28 17:23:00,
2013-07-28 13:24:00,75.2,69.0,29.97,ESE,115,4.0,17.0,81,0.00,,---,0.00,VWS V14.01,2013-07-28 17:24:00,
2013-07-28 13:28:00,74.9,69.0,29.97,ENE,62,6.0,17.0,82,0.00,,---,0.00,VWS V14.01,2013-07-28 17:28:00,
2013-07-28 13:29:00,74.9,68.7,29.97,ENE,71,6.0,10.0,81,0.00,,---,0.00,VWS V14.01,2013-07-28 17:29:00,
2013-07-28 13:30:00,74.9,69.0,29.97,East,92,5.0,10.0,82,0.00,,---,0.00,VWS V14.01,2013-07-28 17:30:00,
2013-07-28 13:33:00,74.8,68.6,29.97,NE,52,12.0,19.0,81,0.00,,---,0.00,VWS V14.01,2013-07-28 17:33:00,
2013-07-28 13:34:00,74.5,68.7,29.97,ENE,58,7.0,19.0,82,0.00,,---,0.00,VWS V14.01,2013-07-28 17:34:00,
2013-07-28 13:35:00,74.4,68.6,29.97,ENE,60,8.0,19.0,82,0.00,,---,0.00,VWS V14.01,2013-07-28 17:35:00,
2013-07-28 13:36:00,74.3,68.1,29.97,ENE,62,11.0,19.0,81,0.00,,---,0.00,VWS V14.01,2013-07-28 17:36:00,
2013-07-28 13:38:00,73.9,68.1,29.98,ENE,77,7.0,19.0,82,0.00,,---,0.00,VWS V14.01,2013-07-28 17:38:00,
2013-07-28 13:39:00,73.8,68.0,29.98,ENE,75,10.0,19.0,82,0.00,,---,0.00,VWS V14.01,2013-07-28 17:39:00,
2013-07-28 13:40:00,73.6,68.1,29.98,ENE,77,16.0,19.0,83,0.00,,---,0.00,VWS V14.01,2013-07-28 17:40:00,
2013-07-28 13:41:00,73.6,68.1,29.98,ENE,75,13.0,19.0,83,0.00,,---,0.00,VWS V14.01,2013-07-28 17:41:00,
2013-07-28 13:43:00,73.1,68.0,29.98,ENE,68,16.0,20.0,84,0.00,,---,0.00,VWS V14.01,2013-07-28 17:43:00,
2013-07-28 13:44:00,72.9,68.1,29.98,East,83,15.0,20.0,85,0.00,,---,0.00,VWS V14.01,2013-07-28 17:44:00,
2013-07-28 13:46:00,72.8,68.0,29.98,East,91,14.0,20.0,85,0.00,,---,0.00,VWS V14.01,2013-07-28 17:46:00,
2013-07-28 13:49:00,72.6,67.8,29.98,ENE,74,12.0,20.0,85,0.00,,---,0.00,VWS V14.01,2013-07-28 17:49:00,
2013-07-28 13:50:00,72.6,67.8,29.98,ENE,61,7.0,20.0,85,0.00,,---,0.00,VWS V14.01,2013-07-28 17:50:00,
2013-07-28 13:52:00,72.6,67.8,29.98,ENE,63,12.0,20.0,85,0.00,,---,0.00,VWS V14.01,2013-07-28 17:52:00,
2013-07-28 13:54:00,72.5,67.7,29.98,ESE,106,10.0,20.0,85,0.00,,---,0.00,VWS V14.01,2013-07-28 17:54:00,
2013-07-28 13:55:00,72.4,67.6,29.98,ENE,68,12.0,20.0,85,0.00,,---,0.00,VWS V14.01,2013-07-28 17:55:00,
2013-07-28 13:57:00,72.3,67.9,29.98,ENE,61,7.0,20.0,86,0.00,,---,0.00,VWS V14.01,2013-07-28 17:57:00,
2013-07-28 13:59:00,72.2,67.8,29.98,ENE,78,9.0,13.0,86,0.00,,---,0.00,VWS V14.01,2013-07-28 17:59:00,
2013-07-28 14:00:00,72.2,67.8,29.98,ENE,74,6.0,13.0,86,0.00,,---,0.00,VWS V14.01,2013-07-28 18:00:00,
2013-07-28 14:02:00,72.3,68.2,29.98,East,82,4.0,13.0,87,0.00,,---,0.00,VWS V14.01,2013-07-28 18:02:00,
2013-07-28 14:04:00,72.4,68.3,29.98,ENE,74,7.0,13.0,87,0.00,,---,0.00,VWS V14.01,2013-07-28 18:04:00,
2013-07-28 14:05:00,72.5,68.4,29.98,East,91,12.0,16.0,87,0.00,,---,0.00,VWS V14.01,2013-07-28 18:05:00,
2013-07-28 14:06:00,72.5,68.1,29.98,East,82,5.0,16.0,86,0.00,,---,0.00,VWS V14.01,2013-07-28 18:06:00,
2013-07-28 14:08:00,72.6,68.5,29.98,ENE,65,6.0,16.0,87,0.00,,---,0.00,VWS V14.01,2013-07-28 18:08:00,
2013-07-28 14:09:00,72.7,68.6,29.98,ENE,58,5.0,16.0,87,0.00,,---,0.00,VWS V14.01,2013-07-28 18:09:00,
2013-07-28 14:10:00,72.8,68.4,29.98,ENE,59,4.0,16.0,86,0.00,,---,0.00,VWS V14.01,2013-07-28 18:10:00,
2013-07-28 14:11:00,72.8,68.0,29.98,East,88,7.0,16.0,85,0.00,,---,0.00,VWS V14.01,2013-07-28 18:11:00,
2013-07-28 14:12:00,72.9,68.1,29.98,NE,49,8.0,16.0,85,0.00,,---,0.00,VWS V14.01,2013-07-28 18:12:00,
2013-07-28 14:15:00,72.9,67.8,29.98,NE,52,7.0,16.0,84,0.00,,---,0.00,VWS V14.01,2013-07-28 18:15:00,
2013-07-28 14:16:00,72.9,68.1,29.98,ENE,67,5.0,16.0,85,0.00,,---,0.00,VWS V14.01,2013-07-28 18:16:00,
2013-07-28 14:17:00,72.8,68.0,29.98,East,82,10.0,16.0,85,0.00,,---,0.00,VWS V14.01,2013-07-28 18:17:00,
2013-07-28 14:20:00,72.5,67.7,29.98,East,86,7.0,16.0,85,0.00,,---,0.00,VWS V14.01,2013-07-28 18:20:00,
2013-07-28 14:21:00,72.5,68.1,29.98,ENE,72,10.0,16.0,86,0.00,,---,0.00,VWS V14.01,2013-07-28 18:21:00,
2013-07-28 14:22:00,72.4,68.0,29.98,ENE,72,8.0,16.0,86,0.00,,---,0.00,VWS V14.01,2013-07-28 18:22:00,
2013-07-28 14:23:00,72.4,68.0,29.98,NE,44,4.0,16.0,86,0.00,,---,0.00,VWS V14.01,2013-07-28 18:23:00,
2013-07-28 14:26:00,72.3,67.9,29.98,East,101,7.0,17.0,86,0.00,,---,0.00,VWS V14.01,2013-07-28 18:26:00,
2013-07-28 14:27:00,72.2,67.8,29.98,ENE,75,7.0,17.0,86,0.00,,---,0.00,VWS V14.01,2013-07-28 18:27:00,
2013-07-28 14:28:00,72.2,67.8,29.98,ESE,103,8.0,17.0,86,0.00,,---,0.00,VWS V14.01,2013-07-28 18:28:00,
2013-07-28 14:32:00,71.9,67.8,29.98,ENE,71,6.0,14.0,87,0.00,,---,0.00,VWS V14.01,2013-07-28 18:32:00,
2013-07-28 14:33:00,71.9,67.8,29.98,NE,55,7.0,14.0,87,0.00,,---,0.00,VWS V14.01,2013-07-28 18:33:00,
2013-07-28 14:34:00,71.9,67.8,29.98,ENE,71,3.0,14.0,87,0.00,,---,0.00,VWS V14.01,2013-07-28 18:34:00,
2013-07-28 14:37:00,72.0,67.6,29.98,ENE,63,9.0,14.0,86,0.00,,---,0.00,VWS V14.01,2013-07-28 18:37:00,
2013-07-28 14:38:00,71.9,67.5,29.98,ENE,70,4.0,14.0,86,0.00,,---,0.00,VWS V14.01,2013-07-28 18:38:00,
2013-07-28 14:39:00,71.9,67.5,29.98,ENE,63,6.0,14.0,86,0.00,,---,0.00,VWS V14.01,2013-07-28 18:39:00,
2013-07-28 14:41:00,71.9,67.8,29.98,ENE,75,11.0,14.0,87,0.00,,---,0.00,VWS V14.01,2013-07-28 18:41:00,
2013-07-28 14:42:00,71.9,67.8,29.98,NE,52,4.0,14.0,87,0.00,,---,0.00,VWS V14.01,2013-07-28 18:42:00,
2013-07-28 14:43:00,71.9,67.5,29.98,ENE,67,4.0,14.0,86,0.00,,---,0.00,VWS V14.01,2013-07-28 18:43:00,
2013-07-28 14:46:00,72.0,67.9,29.98,ENE,68,4.0,14.0,87,0.00,,---,0.00,VWS V14.01,2013-07-28 18:46:00,
2013-07-28 14:47:00,72.0,67.9,29.98,East,82,7.0,14.0,87,0.00,,---,0.00,VWS V14.01,2013-07-28 18:47:00,
2013-07-28 14:48:00,72.0,67.6,29.98,ENE,75,9.0,14.0,86,0.00,,---,0.00,VWS V14.01,2013-07-28 18:48:00,
2013-07-28 14:50:00,72.0,67.6,29.99,ENE,65,10.0,14.0,86,0.00,,---,0.00,VWS V14.01,2013-07-28 18:50:00,
2013-07-28 14:51:00,71.9,67.5,29.98,ESE,108,9.0,15.0,86,0.00,,---,0.00,VWS V14.01,2013-07-28 18:51:00,
2013-07-28 14:52:00,71.8,67.7,29.99,East,84,4.0,15.0,87,0.00,,---,0.00,VWS V14.01,2013-07-28 18:52:00,
2013-07-28 14:55:00,71.7,67.6,29.99,East,79,10.0,15.0,87,0.00,,---,0.00,VWS V14.01,2013-07-28 18:55:00,
2013-07-28 14:57:00,71.6,67.5,29.99,East,90,10.0,15.0,87,0.00,,---,0.00,VWS V14.01,2013-07-28 18:57:00,
2013-07-28 14:59:00,71.5,67.4,29.99,East,86,10.0,11.0,87,0.00,,---,0.00,VWS V14.01,2013-07-28 18:59:00,
2013-07-28 15:00:00,71.5,67.8,29.99,East,101,7.0,11.0,88,0.00,,---,0.00,VWS V14.01,2013-07-28 19:00:00,
2013-07-28 15:01:00,71.6,67.9,29.99,ENE,69,12.0,12.0,88,0.00,,---,0.00,VWS V14.01,2013-07-28 19:01:00,
2013-07-28 15:02:00,71.6,67.9,29.99,East,94,14.0,14.0,88,0.00,,---,0.00,VWS V14.01,2013-07-28 19:02:00,
2013-07-28 15:04:00,71.5,67.4,29.98,East,86,10.0,14.0,87,0.00,,---,0.00,VWS V14.01,2013-07-28 19:04:00,
2013-07-28 15:05:00,71.4,67.3,29.98,East,82,11.0,14.0,87,0.00,,---,0.00,VWS V14.01,2013-07-28 19:05:00,
2013-07-28 15:06:00,71.4,67.3,29.98,East,89,7.0,14.0,87,0.00,,---,0.00,VWS V14.01,2013-07-28 19:06:00,
2013-07-28 15:07:00,71.4,67.7,29.98,ENE,72,9.0,14.0,88,0.00,,---,0.00,VWS V14.01,2013-07-28 19:07:00,
2013-07-28 15:09:00,71.4,67.3,29.98,East,85,13.0,15.0,87,0.00,,---,0.00,VWS V14.01,2013-07-28 19:09:00,
2013-07-28 15:10:00,71.3,67.2,29.98,East,79,7.0,15.0,87,0.00,,---,0.00,VWS V14.01,2013-07-28 19:10:00,
2013-07-28 15:11:00,71.3,67.6,29.98,ENE,75,7.0,15.0,88,0.00,,---,0.00,VWS V14.01,2013-07-28 19:11:00,
2013-07-28 15:13:00,71.4,67.7,29.98,ESE,108,7.0,15.0,88,0.00,,---,0.00,VWS V14.01,2013-07-28 19:13:00,
2013-07-28 15:14:00,71.4,67.7,29.98,East,86,7.0,15.0,88,0.00,,---,0.00,VWS V14.01,2013-07-28 19:14:00,
2013-07-28 15:16:00,71.4,67.7,29.99,East,91,6.0,15.0,88,0.00,,---,0.00,VWS V14.01,2013-07-28 19:16:00,
2013-07-28 15:17:00,71.4,67.3,29.99,ENE,62,3.0,15.0,87,0.00,,---,0.00,VWS V14.01,2013-07-28 19:17:00,
2013-07-28 15:18:00,71.4,67.7,29.99,ENE,68,4.0,15.0,88,0.00,,---,0.00,VWS V14.01,2013-07-28 19:18:00,
2013-07-28 15:20:00,71.4,67.7,29.99,ENE,77,6.0,15.0,88,0.00,,---,0.00,VWS V14.01,2013-07-28 19:20:00,
2013-07-28 15:22:00,71.4,67.7,29.99,ENE,75,4.0,15.0,88,0.00,,---,0.00,VWS V14.01,2013-07-28 19:22:00,
2013-07-28 15:23:00,71.4,67.7,29.99,East,96,12.0,15.0,88,0.00,,---,0.00,VWS V14.01,2013-07-28 19:23:00,
2013-07-28 15:24:00,71.3,67.6,29.99,East,86,6.0,15.0,88,0.00,,---,0.00,VWS V14.01,2013-07-28 19:24:00,
2013-07-28 15:25:00,71.3,67.9,29.99,ENE,62,5.0,15.0,89,0.00,,---,0.00,VWS V14.01,2013-07-28 19:25:00,
2013-07-28 15:26:00,71.3,67.9,29.99,ENE,60,3.0,15.0,89,0.00,,---,0.00,VWS V14.01,2013-07-28 19:26:00,
2013-07-28 15:27:00,71.3,67.9,29.99,ENE,64,3.0,15.0,89,0.00,,---,0.00,VWS V14.01,2013-07-28 19:27:00,
2013-07-28 15:28:00,71.4,68.0,29.99,ENE,60,4.0,15.0,89,0.00,,---,0.00,VWS V14.01,2013-07-28 19:28:00,
2013-07-28 15:31:00,71.3,67.6,29.99,East,86,3.0,4.0,88,0.00,,---,0.00,VWS V14.01,2013-07-28 19:31:00,
2013-07-28 15:32:00,71.4,68.0,29.99,NE,38,4.0,4.0,89,0.00,,---,0.00,VWS V14.01,2013-07-28 19:32:00,
2013-07-28 15:34:00,71.3,67.6,29.99,NE,55,2.0,6.0,88,0.00,,---,0.00,VWS V14.01,2013-07-28 19:34:00,
2013-07-28 15:36:00,71.3,67.6,29.99,ESE,115,6.0,6.0,88,0.00,,---,0.00,VWS V14.01,2013-07-28 19:36:00,
2013-07-28 15:37:00,71.3,67.6,29.99,ESE,103,6.0,7.0,88,0.00,,---,0.00,VWS V14.01,2013-07-28 19:37:00,
2013-07-28 15:39:00,71.2,67.5,29.99,ENE,60,5.0,9.0,88,0.00,,---,0.00,VWS V14.01,2013-07-28 19:39:00,
2013-07-28 15:40:00,71.2,67.5,29.99,ENE,63,2.0,9.0,88,0.00,,---,0.00,VWS V14.01,2013-07-28 19:40:00,
2013-07-28 15:41:00,71.1,67.4,29.99,ENE,62,2.0,9.0,88,0.00,,---,0.00,VWS V14.01,2013-07-28 19:41:00,
2013-07-28 15:43:00,71.1,67.4,29.99,ENE,67,5.0,9.0,88,0.00,,---,0.00,VWS V14.01,2013-07-28 19:43:00,
2013-07-28 15:44:00,71.1,67.7,29.99,NE,53,4.0,9.0,89,0.00,,---,0.00,VWS V14.01,2013-07-28 19:44:00,
2013-07-28 15:45:00,71.1,67.7,29.99,ENE,63,6.0,9.0,89,0.00,,---,0.00,VWS V14.01,2013-07-28 19:45:00,
2013-07-28 15:47:00,71.0,67.3,29.99,ENE,75,3.0,9.0,88,0.00,,---,0.00,VWS V14.01,2013-07-28 19:47:00,
2013-07-28 15:48:00,71.0,67.3,29.99,NE,53,4.0,9.0,88,0.00,,---,0.00,VWS V14.01,2013-07-28 19:48:00,
2013-07-28 15:50:00,70.9,67.2,29.99,NE,53,5.0,10.0,88,0.00,,---,0.00,VWS V14.01,2013-07-28 19:50:00,
2013-07-28 15:51:00,70.8,67.1,29.99,ENE,70,5.0,10.0,88,0.00,,---,0.00,VWS V14.01,2013-07-28 19:51:00,
2013-07-28 15:52:00,70.8,67.1,29.99,East,87,8.0,10.0,88,0.00,,---,0.00,VWS V14.01,2013-07-28 19:52:00,
2013-07-28 15:53:00,70.7,67.3,29.99,ENE,63,6.0,10.0,89,0.00,,---,0.00,VWS V14.01,2013-07-28 19:53:00,
2013-07-28 15:54:00,70.7,67.0,29.99,ENE,63,2.0,10.0,88,0.00,,---,0.00,VWS V14.01,2013-07-28 19:54:00,
2013-07-28 15:57:00,70.7,67.0,29.99,ENE,62,4.0,10.0,88,0.00,,---,0.00,VWS V14.01,2013-07-28 19:57:00,
2013-07-28 15:58:00,70.6,67.2,29.99,ENE,60,5.0,6.0,89,0.00,,---,0.00,VWS V14.01,2013-07-28 19:58:00,
2013-07-28 15:59:00,70.6,67.2,29.99,East,79,6.0,6.0,89,0.00,,---,0.00,VWS V14.01,2013-07-28 19:59:00,
2013-07-28 16:03:00,70.7,67.3,29.99,East,82,3.0,8.0,89,0.00,,---,0.00,VWS V14.01,2013-07-28 20:03:00,
2013-07-28 16:04:00,70.7,67.3,29.99,East,94,6.0,8.0,89,0.00,,---,0.00,VWS V14.01,2013-07-28 20:04:00,
2013-07-28 16:05:00,70.7,67.3,29.99,ENE,60,3.0,8.0,89,0.00,,---,0.00,VWS V14.01,2013-07-28 20:05:00,
2013-07-28 16:06:00,70.6,67.2,29.99,NE,56,6.0,8.0,89,0.00,,---,0.00,VWS V14.01,2013-07-28 20:06:00,
2013-07-28 16:08:00,70.5,67.1,29.99,ENE,63,7.0,8.0,89,0.00,,---,0.00,VWS V14.01,2013-07-28 20:08:00,
2013-07-28 16:10:00,70.4,67.0,29.99,East,81,6.0,8.0,89,0.00,,---,0.00,VWS V14.01,2013-07-28 20:10:00,
2013-07-28 16:11:00,70.4,67.0,29.99,ENE,64,6.0,8.0,89,0.00,,---,0.00,VWS V14.01,2013-07-28 20:11:00,
2013-07-28 16:15:00,70.4,67.0,29.99,ENE,77,6.0,8.0,89,0.00,,---,0.00,VWS V14.01,2013-07-28 20:15:00,
2013-07-28 16:16:00,70.4,67.0,29.99,East,93,8.0,8.0,89,0.00,,---,0.00,VWS V14.01,2013-07-28 20:16:00,
2013-07-28 16:17:00,70.4,67.3,29.99,ENE,65,7.0,8.0,90,0.00,,---,0.00,VWS V14.01,2013-07-28 20:17:00,
2013-07-28 16:20:00,70.3,66.9,29.98,ENE,75,5.0,9.0,89,0.00,,---,0.00,VWS V14.01,2013-07-28 20:20:00,
2013-07-28 16:21:00,70.3,66.9,29.98,ENE,70,4.0,9.0,89,0.00,,---,0.00,VWS V14.01,2013-07-28 20:21:00,
2013-07-28 16:22:00,70.3,67.2,29.98,ENE,75,6.0,9.0,90,0.00,,---,0.00,VWS V14.01,2013-07-28 20:22:00,
2013-07-28 16:23:00,70.3,67.2,29.98,East,89,6.0,9.0,90,0.00,,---,0.00,VWS V14.01,2013-07-28 20:23:00,
2013-07-28 16:25:00,70.4,67.3,29.99,ENE,71,7.0,9.0,90,0.00,,---,0.00,VWS V14.01,2013-07-28 20:25:00,
2013-07-28 16:27:00,70.4,67.3,29.99,ENE,78,7.0,10.0,90,0.00,,---,0.00,VWS V14.01,2013-07-28 20:27:00,
2013-07-28 16:28:00,70.4,67.3,29.98,ENE,77,8.0,8.0,90,0.00,,---,0.00,VWS V14.01,2013-07-28 20:28:00,
2013-07-28 16:29:00,70.3,67.2,29.98,East,95,10.0,10.0,90,0.00,,---,0.00,VWS V14.01,2013-07-28 20:29:00,
2013-07-28 16:31:00,70.3,67.2,29.98,ENE,69,6.0,10.0,90,0.00,,---,0.00,VWS V14.01,2013-07-28 20:31:00,
2013-07-28 16:33:00,70.3,67.2,29.98,East,91,4.0,10.0,90,0.00,,---,0.00,VWS V14.01,2013-07-28 20:33:00,
2013-07-28 16:35:00,70.3,67.2,29.98,ENE,62,2.0,10.0,90,0.00,,---,0.00,VWS V14.01,2013-07-28 20:35:00,
2013-07-28 16:36:00,70.4,67.3,29.98,ENE,57,5.0,10.0,90,0.00,,---,0.00,VWS V14.01,2013-07-28 20:36:00,
2013-07-28 16:38:00,70.3,67.2,29.98,ENE,60,5.0,10.0,90,0.00,,---,0.00,VWS V14.01,2013-07-28 20:38:00,
2013-07-28 16:40:00,70.3,67.2,29.98,ESE,103,7.0,11.0,90,0.00,,---,0.00,VWS V14.01,2013-07-28 20:40:00,
2013-07-28 16:41:00,70.2,67.1,29.98,East,79,4.0,11.0,90,0.00,,---,0.00,VWS V14.01,2013-07-28 20:41:00,
2013-07-28 16:42:00,70.2,67.1,29.98,ENE,72,6.0,11.0,90,0.00,,---,0.00,VWS V14.01,2013-07-28 20:42:00,
2013-07-28 16:44:00,70.2,67.1,29.98,NE,54,3.0,11.0,90,0.00,,---,0.00,VWS V14.01,2013-07-28 20:44:00,
2013-07-28 16:45:00,70.2,67.4,29.98,East,98,6.0,11.0,91,0.00,,---,0.00,VWS V14.01,2013-07-28 20:45:00,
2013-07-28 16:46:00,70.2,67.1,29.98,NE,51,5.0,11.0,90,0.00,,---,0.00,VWS V14.01,2013-07-28 20:46:00,
2013-07-28 16:47:00,70.1,67.0,29.98,NE,55,5.0,11.0,90,0.00,,---,0.00,VWS V14.01,2013-07-28 20:47:00,
2013-07-28 16:50:00,70.0,67.3,29.98,ENE,77,8.0,11.0,91,0.00,,---,0.00,VWS V14.01,2013-07-28 20:50:00,
2013-07-28 16:51:00,70.0,66.9,29.98,ENE,75,6.0,11.0,90,0.00,,---,0.00,VWS V14.01,2013-07-28 20:51:00,
2013-07-28 16:52:00,70.0,67.3,29.98,East,87,4.0,11.0,91,0.00,,---,0.00,VWS V14.01,2013-07-28 20:52:00,
2013-07-28 16:55:00,70.0,66.9,29.98,East,83,9.0,11.0,90,0.00,,---,0.00,VWS V14.01,2013-07-28 20:55:00,
2013-07-28 16:56:00,70.0,66.9,29.98,East,84,6.0,11.0,90,0.00,,---,0.00,VWS V14.01,2013-07-28 20:56:00,
2013-07-28 16:57:00,70.0,66.9,29.98,ENE,77,6.0,11.0,90,0.00,,---,0.00,VWS V14.01,2013-07-28 20:57:00,
2013-07-28 16:58:00,70.0,67.3,29.98,East,91,8.0,11.0,91,0.00,,---,0.00,VWS V14.01,2013-07-28 20:58:00,
2013-07-28 17:00:00,70.0,67.3,29.98,East,96,3.0,8.0,91,0.00,,---,0.00,VWS V14.01,2013-07-28 21:00:00,
2013-07-28 17:03:00,70.1,67.0,29.98,ENE,67,5.0,8.0,90,0.00,,---,0.00,VWS V14.01,2013-07-28 21:03:00,
2013-07-28 17:04:00,70.0,66.9,29.98,ENE,58,7.0,8.0,90,0.00,,---,0.00,VWS V14.01,2013-07-28 21:04:00,
2013-07-28 17:05:00,70.0,66.9,29.98,East,87,8.0,9.0,90,0.00,,---,0.00,VWS V14.01,2013-07-28 21:05:00,
2013-07-28 17:08:00,70.0,66.9,29.99,ENE,68,5.0,13.0,90,0.00,,---,0.00,VWS V14.01,2013-07-28 21:08:00,
2013-07-28 17:09:00,69.9,66.8,29.99,East,91,5.0,13.0,90,0.00,,---,0.00,VWS V14.01,2013-07-28 21:09:00,
2013-07-28 17:10:00,69.9,66.8,29.98,ENE,67,4.0,13.0,90,0.00,,---,0.00,VWS V14.01,2013-07-28 21:10:00,
2013-07-28 17:11:00,69.9,66.8,29.98,ENE,64,5.0,13.0,90,0.00,,---,0.00,VWS V14.01,2013-07-28 21:11:00,
2013-07-28 17:13:00,69.9,66.8,29.99,ENE,65,5.0,13.0,90,0.00,,---,0.00,VWS V14.01,2013-07-28 21:13:00,
2013-07-28 17:14:00,69.9,66.8,29.99,ENE,63,4.0,13.0,90,0.00,,---,0.00,VWS V14.01,2013-07-28 21:14:00,
2013-07-28 17:16:00,69.9,66.8,29.98,NE,53,7.0,13.0,90,0.00,,---,0.00,VWS V14.01,2013-07-28 21:16:00,
2013-07-28 17:18:00,69.9,66.8,29.98,ENE,68,4.0,13.0,90,0.00,,---,0.00,VWS V14.01,2013-07-28 21:18:00,
2013-07-28 17:19:00,69.9,67.2,29.98,ENE,78,5.0,13.0,91,0.00,,---,0.00,VWS V14.01,2013-07-28 21:19:00,
2013-07-28 17:21:00,69.9,67.2,29.98,ENE,64,5.0,13.0,91,0.00,,---,0.00,VWS V14.01,2013-07-28 21:21:00,
2013-07-28 17:22:00,69.9,66.8,29.98,ENE,68,3.0,13.0,90,0.00,,---,0.00,VWS V14.01,2013-07-28 21:22:00,
2013-07-28 17:23:00,69.9,66.8,29.98,East,98,5.0,13.0,90,0.00,,---,0.00,VWS V14.01,2013-07-28 21:23:00,
2013-07-28 17:25:00,70.0,66.9,29.98,NE,53,5.0,13.0,90,0.00,,---,0.00,VWS V14.01,2013-07-28 21:25:00,
2013-07-28 17:28:00,69.9,66.8,29.98,ENE,58,4.0,13.0,90,0.00,,---,0.00,VWS V14.01,2013-07-28 21:28:00,
2013-07-28 17:29:00,69.9,66.8,29.98,ENE,60,7.0,7.0,90,0.00,,---,0.00,VWS V14.01,2013-07-28 21:29:00,
2013-07-28 17:32:00,69.9,67.2,29.98,ENE,63,3.0,10.0,91,0.00,,---,0.00,VWS V14.01,2013-07-28 21:32:00,
2013-07-28 17:33:00,69.9,67.2,29.98,ENE,60,3.0,10.0,91,0.00,,---,0.00,VWS V14.01,2013-07-28 21:33:00,
2013-07-28 17:34:00,69.9,67.2,29.98,East,100,3.0,10.0,91,0.00,,---,0.00,VWS V14.01,2013-07-28 21:34:00,
2013-07-28 17:37:00,69.9,67.2,29.98,East,93,7.0,10.0,91,0.00,,---,0.00,VWS V14.01,2013-07-28 21:37:00,
2013-07-28 17:38:00,69.9,67.2,29.98,ENE,68,7.0,10.0,91,0.00,,---,0.00,VWS V14.01,2013-07-28 21:38:00,
2013-07-28 17:39:00,69.9,67.2,29.98,ENE,68,10.0,13.0,91,0.00,,---,0.00,VWS V14.01,2013-07-28 21:39:00,
2013-07-28 17:41:00,69.8,67.1,29.98,ENE,67,6.0,13.0,91,0.00,,---,0.00,VWS V14.01,2013-07-28 21:41:00,
2013-07-28 17:42:00,69.8,67.1,29.98,East,93,10.0,13.0,91,0.00,,---,0.00,VWS V14.01,2013-07-28 21:42:00,
2013-07-28 17:43:00,69.7,67.0,29.98,ENE,77,10.0,13.0,91,0.00,,---,0.00,VWS V14.01,2013-07-28 21:43:00,
2013-07-28 17:45:00,69.7,67.0,29.98,East,96,13.0,13.0,91,0.00,,---,0.00,VWS V14.01,2013-07-28 21:45:00,
2013-07-28 17:46:00,69.7,67.0,29.98,East,87,11.0,13.0,91,0.00,,---,0.00,VWS V14.01,2013-07-28 21:46:00,
2013-07-28 17:48:00,69.6,66.9,29.98,East,84,8.0,13.0,91,0.00,,---,0.00,VWS V14.01,2013-07-28 21:48:00,
2013-07-28 17:49:00,69.6,66.9,29.98,ENE,77,6.0,13.0,91,0.00,,---,0.00,VWS V14.01,2013-07-28 21:49:00,
2013-07-28 17:51:00,69.6,66.9,29.98,East,90,6.0,13.0,91,0.00,,---,0.00,VWS V14.01,2013-07-28 21:51:00,
2013-07-28 17:52:00,69.6,66.9,29.98,East,83,8.0,13.0,91,0.00,,---,0.00,VWS V14.01,2013-07-28 21:52:00,
2013-07-28 17:53:00,69.5,66.8,29.98,East,97,7.0,13.0,91,0.00,,---,0.00,VWS V14.01,2013-07-28 21:53:00,
2013-07-28 17:54:00,69.5,66.8,29.98,ESE,105,5.0,13.0,91,0.00,,---,0.00,VWS V14.01,2013-07-28 21:54:00,
2013-07-28 17:57:00,69.4,67.0,29.98,ENE,69,2.0,13.0,92,0.00,,---,0.00,VWS V14.01,2013-07-28 21:57:00,
2013-07-28 17:59:00,69.4,67.0,29.98,ENE,73,0.0,5.0,92,0.00,,---,0.00,VWS V14.01,2013-07-28 21:59:00,
2013-07-28 18:00:00,69.4,66.7,29.98,ENE,60,4.0,5.0,91,0.00,,---,0.00,VWS V14.01,2013-07-28 22:00:00,
2013-07-28 18:02:00,69.4,67.0,29.98,East,79,2.0,7.0,92,0.00,,---,0.00,VWS V14.01,2013-07-28 22:02:00,
2013-07-28 18:04:00,69.5,67.1,29.98,NE,52,4.0,8.0,92,0.00,,---,0.00,VWS V14.01,2013-07-28 22:04:00,
2013-07-28 18:05:00,69.4,67.0,29.98,ENE,77,5.0,8.0,92,0.00,,---,0.00,VWS V14.01,2013-07-28 22:05:00,
2013-07-28 18:06:00,69.4,67.0,29.98,East,96,2.0,8.0,92,0.00,,---,0.00,VWS V14.01,2013-07-28 22:06:00,
2013-07-28 18:08:00,69.4,67.0,29.98,ENE,63,5.0,8.0,92,0.00,,---,0.00,VWS V14.01,2013-07-28 22:08:00,
2013-07-28 18:10:00,69.4,67.0,29.98,ENE,70,4.0,8.0,92,0.00,,---,0.00,VWS V14.01,2013-07-28 22:10:00,
2013-07-28 18:12:00,69.4,67.0,29.98,ESE,103,7.0,8.0,92,0.00,,---,0.00,VWS V14.01,2013-07-28 22:12:00,
2013-07-28 18:13:00,69.4,67.0,29.98,ENE,69,7.0,8.0,92,0.00,,---,0.00,VWS V14.01,2013-07-28 22:13:00,
2013-07-28 18:17:00,69.3,66.9,29.98,ENE,58,4.0,10.0,92,0.00,,---,0.00,VWS V14.01,2013-07-28 22:17:00,
2013-07-28 18:19:00,69.2,66.8,29.98,East,86,3.0,10.0,92,0.00,,---,0.00,VWS V14.01,2013-07-28 22:19:00,
2013-07-28 18:22:00,69.2,66.8,29.98,NE,56,3.0,10.0,92,0.00,,---,0.00,VWS V14.01,2013-07-28 22:22:00,
2013-07-28 18:23:00,69.2,66.8,29.98,ENE,69,6.0,10.0,92,0.00,,---,0.00,VWS V14.01,2013-07-28 22:23:00,
2013-07-28 18:24:00,69.2,66.8,29.98,ENE,68,2.0,10.0,92,0.00,,---,0.00,VWS V14.01,2013-07-28 22:24:00,
2013-07-28 18:28:00,69.1,66.7,29.98,SE,131,6.0,10.0,92,0.00,,---,0.00,VWS V14.01,2013-07-28 22:28:00,
2013-07-28 18:29:00,69.1,66.7,29.99,ENE,77,7.0,10.0,92,0.00,,---,0.00,VWS V14.01,2013-07-28 22:29:00,
2013-07-28 18:31:00,69.1,66.7,29.98,East,92,7.0,10.0,92,0.00,,---,0.00,VWS V14.01,2013-07-28 22:31:00,
2013-07-28 18:33:00,69.0,66.6,29.98,East,80,6.0,10.0,92,0.00,,---,0.00,VWS V14.01,2013-07-28 22:33:00,
2013-07-28 18:34:00,69.0,66.6,29.98,ENE,72,7.0,10.0,92,0.00,,---,0.00,VWS V14.01,2013-07-28 22:34:00,
2013-07-28 18:35:00,69.1,66.7,29.99,ENE,70,3.0,10.0,92,0.00,,---,0.00,VWS V14.01,2013-07-28 22:35:00,
2013-07-28 18:36:00,69.1,66.7,29.98,East,92,5.0,10.0,92,0.00,,---,0.00,VWS V14.01,2013-07-28 22:36:00,
2013-07-28 18:38:00,69.2,66.8,29.98,ENE,67,6.0,10.0,92,0.00,,---,0.00,VWS V14.01,2013-07-28 22:38:00,
2013-07-28 18:39:00,69.2,66.5,29.98,NE,55,2.0,10.0,91,0.00,,---,0.00,VWS V14.01,2013-07-28 22:39:00,
2013-07-28 18:41:00,69.3,66.9,29.98,ENE,77,6.0,10.0,92,0.00,,---,0.00,VWS V14.01,2013-07-28 22:41:00,
2013-07-28 18:44:00,69.4,67.0,29.99,East,87,6.0,10.0,92,0.00,,---,0.00,VWS V14.01,2013-07-28 22:44:00,
2013-07-28 18:46:00,69.4,66.7,29.99,ENE,57,5.0,10.0,91,0.00,,---,0.00,VWS V14.01,2013-07-28 22:46:00,
2013-07-28 18:47:00,69.4,66.7,29.99,NE,55,4.0,10.0,91,0.00,,---,0.00,VWS V14.01,2013-07-28 22:47:00,
2013-07-28 18:49:00,69.4,66.7,29.99,ENE,72,8.0,10.0,91,0.00,,---,0.00,VWS V14.01,2013-07-28 22:49:00,
2013-07-28 18:50:00,69.4,66.7,29.99,NE,46,5.0,10.0,91,0.00,,---,0.00,VWS V14.01,2013-07-28 22:50:00,
2013-07-28 18:51:00,69.4,66.7,29.99,ENE,75,8.0,10.0,91,0.00,,---,0.00,VWS V14.01,2013-07-28 22:51:00,
2013-07-28 18:52:00,69.3,66.6,29.99,ENE,60,3.0,10.0,91,0.00,,---,0.00,VWS V14.01,2013-07-28 22:52:00,
2013-07-28 18:55:00,69.2,66.5,29.99,ENE,73,5.0,10.0,91,0.00,,---,0.00,VWS V14.01,2013-07-28 22:55:00,
2013-07-28 18:56:00,69.2,66.5,29.99,ENE,77,7.0,10.0,91,0.00,,---,0.00,VWS V14.01,2013-07-28 22:56:00,
2013-07-28 18:57:00,69.2,66.5,29.99,NE,53,3.0,10.0,91,0.00,,---,0.00,VWS V14.01,2013-07-28 22:57:00,
2013-07-28 19:00:00,69.2,66.5,29.99,East,98,10.0,11.0,91,0.00,,---,0.00,VWS V14.01,2013-07-28 23:00:00,
2013-07-28 19:02:00,69.2,66.5,29.99,ENE,67,4.0,11.0,91,0.00,,---,0.00,VWS V14.01,2013-07-28 23:02:00,
2013-07-28 19:03:00,69.2,66.5,29.99,ENE,73,5.0,11.0,91,0.00,,---,0.00,VWS V14.01,2013-07-28 23:03:00,
2013-07-28 19:05:00,69.2,66.5,29.99,ESE,108,7.0,11.0,91,0.00,,---,0.00,VWS V14.01,2013-07-28 23:05:00,
2013-07-28 19:07:00,69.2,66.8,29.99,East,91,9.0,11.0,92,0.00,,---,0.00,VWS V14.01,2013-07-28 23:07:00,
2013-07-28 19:08:00,69.2,66.5,29.99,East,94,9.0,11.0,91,0.00,,---,0.00,VWS V14.01,2013-07-28 23:08:00,
2013-07-28 19:10:00,69.1,66.4,29.99,East,91,9.0,11.0,91,0.00,,---,0.00,VWS V14.01,2013-07-28 23:10:00,
2013-07-28 19:11:00,69.0,66.3,30.00,ESE,105,9.0,11.0,91,0.00,,---,0.00,VWS V14.01,2013-07-28 23:11:00,
2013-07-28 19:12:00,69.0,66.3,30.00,East,94,8.0,11.0,91,0.00,,---,0.00,VWS V14.01,2013-07-28 23:12:00,
2013-07-28 19:13:00,69.0,66.3,30.00,East,86,5.0,11.0,91,0.00,,---,0.00,VWS V14.01,2013-07-28 23:13:00,
2013-07-28 19:15:00,68.9,66.5,30.00,NE,53,3.0,11.0,92,0.00,,---,0.00,VWS V14.01,2013-07-28 23:15:00,
2013-07-28 19:16:00,68.9,66.2,30.00,ENE,67,4.0,11.0,91,0.00,,---,0.00,VWS V14.01,2013-07-28 23:16:00,
2013-07-28 19:17:00,68.9,66.2,30.00,ENE,69,5.0,11.0,91,0.00,,---,0.00,VWS V14.01,2013-07-28 23:17:00,
2013-07-28 19:18:00,68.9,66.2,30.00,ENE,68,2.0,11.0,91,0.00,,---,0.00,VWS V14.01,2013-07-28 23:18:00,
2013-07-28 19:19:00,68.9,66.5,30.00,East,99,4.0,11.0,92,0.00,,---,0.00,VWS V14.01,2013-07-28 23:19:00,
2013-07-28 19:20:00,69.0,66.6,30.00,East,94,5.0,11.0,92,0.00,,---,0.00,VWS V14.01,2013-07-28 23:20:00,
2013-07-28 19:21:00,69.0,66.6,30.00,East,79,6.0,11.0,92,0.00,,---,0.00,VWS V14.01,2013-07-28 23:21:00,
2013-07-28 19:23:00,69.0,66.3,30.00,ENE,67,3.0,11.0,91,0.00,,---,0.00,VWS V14.01,2013-07-28 23:23:00,
2013-07-28 19:24:00,69.0,66.3,30.00,East,79,6.0,11.0,91,0.00,,---,0.00,VWS V14.01,2013-07-28 23:24:00,
2013-07-28 19:26:00,69.0,66.6,30.00,ENE,59,9.0,12.0,92,0.00,,---,0.00,VWS V14.01,2013-07-28 23:26:00,
2013-07-28 19:27:00,69.0,66.6,30.00,ENE,71,7.0,12.0,92,0.00,,---,0.00,VWS V14.01,2013-07-28 23:27:00,
2013-07-28 19:28:00,68.9,66.2,30.00,East,91,8.0,12.0,91,0.00,,---,0.00,VWS V14.01,2013-07-28 23:28:00,
2013-07-28 19:29:00,68.9,66.2,30.00,ENE,71,6.0,9.0,91,0.00,,---,0.00,VWS V14.01,2013-07-28 23:29:00,
2013-07-28 19:31:00,68.9,66.2,30.00,East,84,7.0,9.0,91,0.00,,---,0.00,VWS V14.01,2013-07-28 23:31:00,
2013-07-28 19:32:00,68.9,66.5,30.00,ENE,76,7.0,10.0,92,0.00,,---,0.00,VWS V14.01,2013-07-28 23:32:00,
2013-07-28 19:34:00,68.9,66.2,30.00,East,93,7.0,10.0,91,0.00,,---,0.00,VWS V14.01,2013-07-28 23:34:00,
2013-07-28 19:35:00,68.9,66.2,30.00,ENE,64,5.0,10.0,91,0.00,,---,0.00,VWS V14.01,2013-07-28 23:35:00,
2013-07-28 19:37:00,68.8,66.1,30.00,ENE,66,6.0,10.0,91,0.00,,---,0.00,VWS V14.01,2013-07-28 23:37:00,
2013-07-28 19:38:00,68.8,66.4,30.00,East,89,6.0,10.0,92,0.00,,---,0.00,VWS V14.01,2013-07-28 23:38:00,
2013-07-28 19:40:00,68.9,66.2,30.00,East,80,5.0,10.0,91,0.00,,---,0.00,VWS V14.01,2013-07-28 23:40:00,
2013-07-28 19:42:00,68.8,66.1,30.00,ESE,103,5.0,10.0,91,0.00,,---,0.00,VWS V14.01,2013-07-28 23:42:00,
2013-07-28 19:43:00,68.8,66.1,30.00,ENE,58,4.0,10.0,91,0.00,,---,0.00,VWS V14.01,2013-07-28 23:43:00,
2013-07-28 19:44:00,68.8,66.1,30.00,ENE,72,5.0,10.0,91,0.00,,---,0.00,VWS V14.01,2013-07-28 23:44:00,
2013-07-28 19:46:00,68.8,66.1,30.01,NE,49,4.0,10.0,91,0.00,,---,0.00,VWS V14.01,2013-07-28 23:46:00,
2013-07-28 19:47:00,68.8,66.1,30.00,ENE,68,4.0,10.0,91,0.00,,---,0.00,VWS V14.01,2013-07-28 23:47:00,
2013-07-28 19:48:00,68.8,66.1,30.00,NNE,28,2.0,10.0,91,0.00,,---,0.00,VWS V14.01,2013-07-28 23:48:00,
2013-07-28 19:49:00,68.7,66.0,30.00,ENE,74,4.0,10.0,91,0.00,,---,0.00,VWS V14.01,2013-07-28 23:49:00,
2013-07-28 19:52:00,68.8,66.1,30.00,ENE,70,8.0,10.0,91,0.00,,---,0.00,VWS V14.01,2013-07-28 23:52:00,
2013-07-28 19:53:00,68.8,66.1,30.00,ENE,69,8.0,10.0,91,0.00,,---,0.00,VWS V14.01,2013-07-28 23:53:00,
2013-07-28 19:54:00,68.8,66.1,30.00,ENE,66,5.0,10.0,91,0.00,,---,0.00,VWS V14.01,2013-07-28 23:54:00,
2013-07-28 19:55:00,68.7,66.0,30.00,ENE,60,4.0,10.0,91,0.00,,---,0.00,VWS V14.01,2013-07-28 23:55:00,
2013-07-28 19:57:00,68.7,66.0,30.00,East,89,2.0,10.0,91,0.00,,---,0.00,VWS V14.01,2013-07-28 23:57:00,
2013-07-28 19:59:00,68.7,66.0,30.00,East,79,4.0,9.0,91,0.00,,---,0.00,VWS V14.01,2013-07-28 23:59:00,
2013-07-28 20:00:00,68.6,65.9,30.00,East,97,8.0,9.0,91,0.00,,---,0.00,VWS V14.01,2013-07-29 00:00:00,
2013-07-28 20:02:00,68.7,66.0,30.00,ENE,72,4.0,9.0,91,0.00,,---,0.00,VWS V14.01,2013-07-29 00:02:00,
2013-07-28 20:03:00,68.8,66.4,30.00,ENE,76,2.0,9.0,92,0.00,,---,0.00,VWS V14.01,2013-07-29 00:03:00,
2013-07-28 20:05:00,68.8,66.1,30.00,East,84,3.0,9.0,91,0.00,,---,0.00,VWS V14.01,2013-07-29 00:05:00,
2013-07-28 20:06:00,68.8,66.1,30.00,East,101,3.0,9.0,91,0.00,,---,0.00,VWS V14.01,2013-07-29 00:06:00,
2013-07-28 20:09:00,68.7,66.0,30.00,ENE,65,6.0,9.0,91,0.00,,---,0.00,VWS V14.01,2013-07-29 00:09:00,
2013-07-28 20:10:00,68.6,65.9,30.00,East,80,4.0,9.0,91,0.00,,---,0.00,VWS V14.01,2013-07-29 00:10:00,
2013-07-28 20:11:00,68.6,65.9,30.00,East,87,5.0,9.0,91,0.00,,---,0.00,VWS V14.01,2013-07-29 00:11:00,
2013-07-28 20:12:00,68.6,65.9,30.00,ENE,72,4.0,9.0,91,0.00,,---,0.00,VWS V14.01,2013-07-29 00:12:00,
2013-07-28 20:14:00,68.6,65.9,30.00,ENE,63,6.0,11.0,91,0.00,,---,0.00,VWS V14.01,2013-07-29 00:14:00,
2013-07-28 20:15:00,68.6,65.9,30.00,East,88,2.0,11.0,91,0.00,,---,0.00,VWS V14.01,2013-07-29 00:15:00,
2013-07-28 20:16:00,68.5,65.8,30.00,NE,53,5.0,11.0,91,0.00,,---,0.00,VWS V14.01,2013-07-29 00:16:00,
2013-07-28 20:17:00,68.5,65.8,30.00,East,79,5.0,11.0,91,0.00,,---,0.00,VWS V14.01,2013-07-29 00:17:00,
2013-07-28 20:19:00,68.5,65.8,30.00,ENE,72,1.0,11.0,91,0.00,,---,0.00,VWS V14.01,2013-07-29 00:19:00,
2013-07-28 20:20:00,68.4,65.7,30.00,ENE,63,2.0,11.0,91,0.00,,---,0.00,VWS V14.01,2013-07-29 00:20:00,
2013-07-28 20:21:00,68.4,65.7,30.00,ENE,77,4.0,11.0,91,0.00,,---,0.00,VWS V14.01,2013-07-29 00:21:00,
2013-07-28 20:24:00,68.5,66.1,30.00,ENE,57,1.0,11.0,92,0.00,,---,0.00,VWS V14.01,2013-07-29 00:24:00,
2013-07-28 20:25:00,68.4,66.0,30.00,East,91,6.0,11.0,92,0.00,,---,0.00,VWS V14.01,2013-07-29 00:25:00,
2013-07-28 20:26:00,68.4,66.0,30.00,NE,56,6.0,11.0,92,0.00,,---,0.00,VWS V14.01,2013-07-29 00:26:00,
2013-07-28 20:28:00,68.4,66.0,30.00,ENE,58,4.0,11.0,92,0.00,,---,0.00,VWS V14.01,2013-07-29 00:28:00,
2013-07-28 20:30:00,68.4,66.0,30.00,East,81,6.0,6.0,92,0.00,,---,0.00,VWS V14.01,2013-07-29 00:30:00,
2013-07-28 20:31:00,68.3,65.9,30.00,East,87,6.0,7.0,92,0.00,,---,0.00,VWS V14.01,2013-07-29 00:31:00,
2013-07-28 20:32:00,68.3,65.9,30.00,East,99,5.0,7.0,92,0.00,,---,0.00,VWS V14.01,2013-07-29 00:32:00,
2013-07-28 20:33:00,68.4,66.0,30.01,ENE,59,2.0,7.0,92,0.00,,---,0.00,VWS V14.01,2013-07-29 00:33:00,
2013-07-28 20:35:00,68.4,66.0,30.01,ENE,64,4.0,7.0,92,0.00,,---,0.00,VWS V14.01,2013-07-29 00:35:00,
2013-07-28 20:36:00,68.4,65.7,30.01,East,79,6.0,7.0,91,0.00,,---,0.00,VWS V14.01,2013-07-29 00:36:00,
2013-07-28 20:37:00,68.3,65.9,30.01,ENE,60,3.0,7.0,92,0.00,,---,0.00,VWS V14.01,2013-07-29 00:37:00,
2013-07-28 20:38:00,68.3,65.9,30.01,ENE,60,3.0,7.0,92,0.00,,---,0.00,VWS V14.01,2013-07-29 00:38:00,
2013-07-28 20:40:00,68.3,65.6,30.01,ENE,63,5.0,7.0,91,0.00,,---,0.00,VWS V14.01,2013-07-29 00:40:00,
2013-07-28 20:42:00,68.2,65.8,30.01,ENE,62,2.0,8.0,92,0.00,,---,0.00,VWS V14.01,2013-07-29 00:42:00,
2013-07-28 20:43:00,68.2,65.8,30.01,East,84,0.0,8.0,92,0.00,,---,0.00,VWS V14.01,2013-07-29 00:43:00,
2013-07-28 20:44:00,68.2,65.8,30.01,ENE,77,2.0,8.0,92,0.00,,---,0.00,VWS V14.01,2013-07-29 00:44:00,
2013-07-28 20:45:00,68.2,65.8,30.01,ESE,107,5.0,8.0,92,0.00,,---,0.00,VWS V14.01,2013-07-29 00:45:00,
2013-07-28 20:47:00,68.2,65.8,30.01,ENE,57,4.0,9.0,92,0.00,,---,0.00,VWS V14.01,2013-07-29 00:47:00,
2013-07-28 20:48:00,68.2,65.8,30.01,ENE,70,5.0,9.0,92,0.00,,---,0.00,VWS V14.01,2013-07-29 00:48:00,
2013-07-28 20:49:00,68.2,65.8,30.01,ENE,74,4.0,9.0,92,0.00,,---,0.00,VWS V14.01,2013-07-29 00:49:00,
2013-07-28 20:50:00,68.1,65.7,30.01,ENE,72,5.0,9.0,92,0.00,,---,0.00,VWS V14.01,2013-07-29 00:50:00,
2013-07-28 20:52:00,68.1,65.7,30.01,ENE,68,3.0,9.0,92,0.00,,---,0.00,VWS V14.01,2013-07-29 00:52:00,
2013-07-28 20:55:00,68.0,65.6,30.01,East,92,5.0,9.0,92,0.00,,---,0.00,VWS V14.01,2013-07-29 00:55:00,
2013-07-28 20:56:00,68.0,65.6,30.01,East,97,6.0,9.0,92,0.00,,---,0.00,VWS V14.01,2013-07-29 00:56:00,
2013-07-28 20:57:00,67.9,65.5,30.01,East,86,6.0,9.0,92,0.00,,---,0.00,VWS V14.01,2013-07-29 00:57:00,
2013-07-28 20:59:00,68.0,65.9,30.01,NE,40,2.0,4.0,93,0.00,,---,0.00,VWS V14.01,2013-07-29 00:59:00,
2013-07-28 21:00:00,67.9,65.5,30.01,East,82,1.0,7.0,92,0.00,,---,0.00,VWS V14.01,2013-07-29 01:00:00,
2013-07-28 21:01:00,67.8,65.4,30.01,East,79,4.0,7.0,92,0.00,,---,0.00,VWS V14.01,2013-07-29 01:01:00,
2013-07-28 21:02:00,67.8,65.4,30.01,ENE,67,3.0,7.0,92,0.00,,---,0.00,VWS V14.01,2013-07-29 01:02:00,
2013-07-28 21:04:00,67.8,65.7,30.01,ENE,57,5.0,7.0,93,0.00,,---,0.00,VWS V14.01,2013-07-29 01:04:00,
2013-07-28 21:05:00,67.7,65.3,30.01,SE,126,2.0,7.0,92,0.00,,---,0.00,VWS V14.01,2013-07-29 01:05:00,
2013-07-28 21:07:00,67.7,65.3,30.01,ESE,108,7.0,7.0,92,0.00,,---,0.00,VWS V14.01,2013-07-29 01:07:00,
2013-07-28 21:08:00,67.6,65.2,30.01,ENE,65,3.0,7.0,92,0.00,,---,0.00,VWS V14.01,2013-07-29 01:08:00,
2013-07-28 21:10:00,67.6,65.5,30.01,NNE,27,3.0,7.0,93,0.00,,---,0.00,VWS V14.01,2013-07-29 01:10:00,
2013-07-28 21:13:00,67.5,65.4,30.01,ENE,60,2.0,7.0,93,0.00,,---,0.00,VWS V14.01,2013-07-29 01:13:00,
2013-07-28 21:15:00,67.4,65.3,30.01,East,97,6.0,8.0,93,0.01,,---,0.01,VWS V14.01,2013-07-29 01:15:00,
2013-07-28 21:19:00,67.4,65.3,30.01,ENE,77,5.0,8.0,93,0.01,,---,0.01,VWS V14.01,2013-07-29 01:19:00,
2013-07-28 21:20:00,67.3,65.2,30.01,ENE,65,3.0,8.0,93,0.01,,---,0.01,VWS V14.01,2013-07-29 01:20:00,
2013-07-28 21:21:00,67.3,65.2,30.01,ENE,57,2.0,8.0,93,0.01,,---,0.01,VWS V14.01,2013-07-29 01:21:00,
2013-07-28 21:22:00,67.3,65.2,30.00,NE,52,3.0,8.0,93,0.01,,---,0.01,VWS V14.01,2013-07-29 01:22:00,
2013-07-28 21:25:00,67.2,65.1,30.00,NNE,25,2.0,8.0,93,0.01,,---,0.01,VWS V14.01,2013-07-29 01:25:00,
2013-07-28 21:26:00,67.2,65.1,30.00,ENE,63,3.0,8.0,93,0.01,,---,0.01,VWS V14.01,2013-07-29 01:26:00,
2013-07-28 21:28:00,67.1,65.0,30.00,East,89,2.0,8.0,93,0.01,,---,0.01,VWS V14.01,2013-07-29 01:28:00,
2013-07-28 21:30:00,67.1,65.0,30.00,ENE,62,3.0,6.0,93,0.01,,---,0.01,VWS V14.01,2013-07-29 01:30:00,
2013-07-28 21:31:00,67.1,65.0,30.00,ENE,64,2.0,6.0,93,0.01,,---,0.01,VWS V14.01,2013-07-29 01:31:00,
2013-07-28 21:32:00,67.1,65.3,30.01,NE,52,4.0,6.0,94,0.01,,---,0.01,VWS V14.01,2013-07-29 01:32:00,
2013-07-28 21:33:00,67.1,65.3,30.00,ENE,77,4.0,6.0,94,0.01,,---,0.01,VWS V14.01,2013-07-29 01:33:00,
2013-07-28 21:36:00,67.1,65.3,30.01,ENE,68,4.0,7.0,94,0.01,,---,0.01,VWS V14.01,2013-07-29 01:36:00,
2013-07-28 21:37:00,67.1,65.3,30.01,ENE,77,4.0,7.0,94,0.01,,---,0.01,VWS V14.01,2013-07-29 01:37:00,
2013-07-28 21:39:00,67.1,65.3,30.01,East,101,2.0,7.0,94,0.01,,---,0.01,VWS V14.01,2013-07-29 01:39:00,
2013-07-28 21:41:00,67.2,65.4,30.01,NE,49,4.0,7.0,94,0.01,,---,0.01,VWS V14.01,2013-07-29 01:41:00,
2013-07-28 21:42:00,67.1,65.3,30.01,East,81,6.0,7.0,94,0.01,,---,0.01,VWS V14.01,2013-07-29 01:42:00,
2013-07-28 21:44:00,67.1,65.3,30.01,NE,52,4.0,7.0,94,0.01,,---,0.01,VWS V14.01,2013-07-29 01:44:00,
2013-07-28 21:46:00,67.0,65.2,30.01,NE,56,2.0,7.0,94,0.01,,---,0.01,VWS V14.01,2013-07-29 01:46:00,
2013-07-28 21:47:00,67.0,65.2,30.00,NE,52,3.0,7.0,94,0.01,,---,0.01,VWS V14.01,2013-07-29 01:47:00,
2013-07-28 21:48:00,66.9,65.1,30.00,ENE,74,3.0,7.0,94,0.01,,---,0.01,VWS V14.01,2013-07-29 01:48:00,
2013-07-28 21:50:00,67.0,65.2,30.00,ENE,57,2.0,7.0,94,0.01,,---,0.01,VWS V14.01,2013-07-29 01:50:00,
2013-07-28 21:52:00,66.9,65.1,30.00,ENE,72,4.0,7.0,94,0.01,,---,0.01,VWS V14.01,2013-07-29 01:52:00,
2013-07-28 21:53:00,66.8,65.0,30.00,NE,49,6.0,7.0,94,0.01,,---,0.01,VWS V14.01,2013-07-29 01:53:00,
2013-07-28 21:55:00,66.8,65.0,30.00,East,86,4.0,8.0,94,0.01,,---,0.01,VWS V14.01,2013-07-29 01:55:00,
2013-07-28 21:57:00,66.7,64.9,30.00,ENE,62,2.0,8.0,94,0.01,,---,0.01,VWS V14.01,2013-07-29 01:57:00,
2013-07-28 21:58:00,66.7,64.9,30.00,ENE,74,4.0,8.0,94,0.01,,---,0.01,VWS V14.01,2013-07-29 01:58:00,
2013-07-28 22:00:00,66.7,64.9,30.00,ENE,58,1.0,6.0,94,0.01,,---,0.01,VWS V14.01,2013-07-29 02:00:00,
2013-07-28 22:02:00,66.7,64.9,30.00,ENE,57,2.0,6.0,94,0.01,,---,0.01,VWS V14.01,2013-07-29 02:02:00,
2013-07-28 22:03:00,66.7,64.9,30.00,NE,53,2.0,6.0,94,0.01,,---,0.01,VWS V14.01,2013-07-29 02:03:00,
2013-07-28 22:06:00,66.6,64.8,30.00,ENE,63,3.0,7.0,94,0.01,,---,0.01,VWS V14.01,2013-07-29 02:06:00,
2013-07-28 22:08:00,66.6,64.8,30.00,ESE,118,2.0,7.0,94,0.01,,---,0.01,VWS V14.01,2013-07-29 02:08:00,
2013-07-28 22:10:00,66.6,64.8,30.00,ENE,72,1.0,7.0,94,0.01,,---,0.01,VWS V14.01,2013-07-29 02:10:00,
2013-07-28 22:11:00,66.6,64.8,30.00,NE,47,1.0,7.0,94,0.01,,---,0.01,VWS V14.01,2013-07-29 02:11:00,
2013-07-28 22:12:00,66.6,64.8,30.00,NE,47,0.0,7.0,94,0.01,,---,0.01,VWS V14.01,2013-07-29 02:12:00,
2013-07-28 22:15:00,66.6,64.8,30.00,ENE,65,0.0,7.0,94,0.01,,---,0.01,VWS V14.01,2013-07-29 02:15:00,
2013-07-28 22:16:00,66.6,65.1,30.00,ENE,65,2.0,7.0,95,0.01,,---,0.01,VWS V14.01,2013-07-29 02:16:00,
2013-07-28 22:17:00,66.6,65.1,30.00,NE,41,2.0,7.0,95,0.01,,---,0.01,VWS V14.01,2013-07-29 02:17:00,
2013-07-28 22:20:00,66.6,64.8,30.00,East,87,5.0,7.0,94,0.01,,---,0.01,VWS V14.01,2013-07-29 02:20:00,
2013-07-28 22:21:00,66.6,65.1,30.00,NE,49,3.0,7.0,95,0.01,,---,0.01,VWS V14.01,2013-07-29 02:21:00,
2013-07-28 22:22:00,66.5,64.7,30.00,ESE,108,3.0,7.0,94,0.01,,---,0.01,VWS V14.01,2013-07-29 02:22:00,
2013-07-28 22:23:00,66.5,64.7,30.00,NE,52,2.0,7.0,94,0.01,,---,0.01,VWS V14.01,2013-07-29 02:23:00,
2013-07-28 22:27:00,66.4,64.6,30.00,NE,37,0.0,7.0,94,0.01,,---,0.01,VWS V14.01,2013-07-29 02:27:00,
2013-07-28 22:28:00,66.4,64.6,30.00,ENE,77,2.0,7.0,94,0.01,,---,0.01,VWS V14.01,2013-07-29 02:28:00,
2013-07-28 22:32:00,66.3,64.5,29.99,ENE,61,4.0,6.0,94,0.00,,---,0.01,VWS V14.01,2013-07-29 02:32:00,
2013-07-28 22:33:00,66.3,64.5,29.99,ENE,60,2.0,6.0,94,0.00,,---,0.01,VWS V14.01,2013-07-29 02:33:00,
2013-07-28 22:35:00,66.3,64.5,29.99,NE,45,1.0,6.0,94,0.00,,---,0.01,VWS V14.01,2013-07-29 02:35:00,
2013-07-28 22:38:00,66.2,64.4,29.99,NE,55,1.0,6.0,94,0.00,,---,0.01,VWS V14.01,2013-07-29 02:38:00,
2013-07-28 22:40:00,66.2,64.4,29.99,ENE,77,1.0,6.0,94,0.00,,---,0.01,VWS V14.01,2013-07-29 02:40:00,
2013-07-28 22:43:00,66.2,64.4,29.99,NE,50,2.0,7.0,94,0.00,,---,0.01,VWS V14.01,2013-07-29 02:43:00,
2013-07-28 22:45:00,66.2,64.4,29.99,ENE,72,2.0,7.0,94,0.00,,---,0.01,VWS V14.01,2013-07-29 02:45:00,
2013-07-28 22:49:00,66.2,64.4,29.99,East,84,3.0,7.0,94,0.00,,---,0.01,VWS V14.01,2013-07-29 02:49:00,
2013-07-28 22:50:00,66.2,64.4,29.99,East,80,4.0,7.0,94,0.00,,---,0.01,VWS V14.01,2013-07-29 02:50:00,
2013-07-28 22:51:00,66.3,64.8,29.99,ENE,69,7.0,8.0,95,0.00,,---,0.01,VWS V14.01,2013-07-29 02:51:00,
2013-07-28 22:54:00,66.4,64.9,29.99,ENE,58,2.0,8.0,95,0.00,,---,0.01,VWS V14.01,2013-07-29 02:54:00,
2013-07-28 22:55:00,66.4,64.9,29.99,ENE,58,1.0,8.0,95,0.00,,---,0.01,VWS V14.01,2013-07-29 02:55:00,
2013-07-28 22:56:00,66.4,64.9,29.99,ESE,112,2.0,8.0,95,0.00,,---,0.01,VWS V14.01,2013-07-29 02:56:00,
2013-07-28 22:59:00,66.3,64.5,29.99,East,79,2.0,2.0,94,0.00,,---,0.01,VWS V14.01,2013-07-29 02:59:00,
2013-07-28 23:01:00,66.2,64.4,29.99,ENE,60,1.0,5.0,94,0.00,,---,0.01,VWS V14.01,2013-07-29 03:01:00,
2013-07-28 23:02:00,66.2,64.4,29.99,NNE,32,0.0,5.0,94,0.00,,---,0.01,VWS V14.01,2013-07-29 03:02:00,
2013-07-28 23:03:00,65.8,64.3,30.00,East,94,0.0,0.0,95,0.00,,---,0.01,VWS V14.01,2013-07-29 03:03:00,
2013-07-28 23:04:00,65.8,64.6,30.00,East,94,0.0,0.0,96,0.00,,---,0.01,VWS V14.01,2013-07-29 03:04:00,
2013-07-28 23:05:00,66.2,64.7,29.99,East,96,3.0,5.0,95,0.00,,---,0.01,VWS V14.01,2013-07-29 03:05:00,
2013-07-28 23:06:00,66.1,64.6,29.99,East,84,4.0,5.0,95,0.00,,---,0.01,VWS V14.01,2013-07-29 03:06:00,
2013-07-28 23:07:00,66.1,64.6,29.99,East,79,5.0,6.0,95,0.00,,---,0.01,VWS V14.01,2013-07-29 03:07:00,
2013-07-28 23:08:00,66.2,64.7,29.99,East,97,7.0,8.0,95,0.00,,---,0.01,VWS V14.01,2013-07-29 03:08:00,
2013-07-28 23:09:00,65.8,64.6,30.00,NE,55,0.0,3.0,96,0.00,,---,0.01,VWS V14.01,2013-07-29 03:09:00,
2013-07-28 23:10:00,66.1,64.3,29.99,ENE,58,2.0,8.0,94,0.00,,---,0.01,VWS V14.01,2013-07-29 03:10:00,
2013-07-28 23:11:00,65.8,64.6,30.00,ENE,58,1.0,3.0,96,0.00,,---,0.01,VWS V14.01,2013-07-29 03:11:00,
2013-07-28 23:12:00,65.8,64.3,30.00,ENE,70,2.0,3.0,95,0.00,,---,0.01,VWS V14.01,2013-07-29 03:12:00,
2013-07-28 23:13:00,65.8,64.6,30.00,ENE,68,1.0,3.0,96,0.00,,---,0.01,VWS V14.01,2013-07-29 03:13:00,
2013-07-28 23:14:00,66.1,64.6,29.99,ENE,72,4.0,8.0,95,0.00,,---,0.01,VWS V14.01,2013-07-29 03:14:00,
2013-07-28 23:15:00,66.2,64.7,29.99,East,91,8.0,9.0,95,0.00,,---,0.01,VWS V14.01,2013-07-29 03:15:00,
2013-07-28 23:16:00,65.8,64.6,30.00,ENE,68,0.0,3.0,96,0.00,,---,0.01,VWS V14.01,2013-07-29 03:16:00,
2013-07-28 23:17:00,66.2,64.7,29.99,NE,49,2.0,9.0,95,0.00,,---,0.01,VWS V14.01,2013-07-29 03:17:00,
2013-07-28 23:18:00,65.9,64.7,30.00,East,81,0.0,3.0,96,0.00,,---,0.01,VWS V14.01,2013-07-29 03:18:00,
2013-07-28 23:19:00,66.2,64.7,29.99,ENE,70,6.0,9.0,95,0.00,,---,0.01,VWS V14.01,2013-07-29 03:19:00,
2013-07-28 23:20:00,66.2,64.7,29.99,East,91,6.0,9.0,95,0.00,,---,0.01,VWS V14.01,2013-07-29 03:20:00,
2013-07-28 23:21:00,66.2,64.7,29.99,East,91,6.0,9.0,95,0.00,,---,0.01,VWS V14.01,2013-07-29 03:21:00,
2013-07-28 23:22:00,66.2,64.7,29.99,ENE,72,6.0,9.0,95,0.00,,---,0.01,VWS V14.01,2013-07-29 03:22:00,
2013-07-28 23:25:00,66.2,64.7,29.99,ENE,73,7.0,9.0,95,0.00,,---,0.01,VWS V14.01,2013-07-29 03:25:00,
2013-07-28 23:26:00,66.2,65.0,29.99,ENE,58,5.0,9.0,96,0.00,,---,0.01,VWS V14.01,2013-07-29 03:26:00,
2013-07-28 23:27:00,66.2,64.7,29.99,ENE,73,2.0,9.0,95,0.00,,---,0.01,VWS V14.01,2013-07-29 03:27:00,
2013-07-28 23:31:00,66.1,64.6,29.99,ENE,67,6.0,7.0,95,0.00,,---,0.01,VWS V14.01,2013-07-29 03:31:00,
2013-07-28 23:32:00,66.1,64.6,29.99,ENE,73,5.0,7.0,95,0.00,,---,0.01,VWS V14.01,2013-07-29 03:32:00,
2013-07-28 23:33:00,66.1,64.6,29.99,ENE,75,3.0,7.0,95,0.00,,---,0.01,VWS V14.01,2013-07-29 03:33:00,
2013-07-28 23:37:00,66.1,64.6,29.99,East,82,2.0,7.0,95,0.00,,---,0.01,VWS V14.01,2013-07-29 03:37:00,
2013-07-28 23:39:00,66.1,64.6,29.99,East,101,5.0,7.0,95,0.00,,---,0.01,VWS V14.01,2013-07-29 03:39:00,
2013-07-28 23:42:00,66.0,64.5,29.99,East,84,6.0,7.0,95,0.00,,---,0.01,VWS V14.01,2013-07-29 03:42:00,
2013-07-28 23:44:00,66.0,64.5,29.99,East,86,5.0,8.0,95,0.00,,---,0.01,VWS V14.01,2013-07-29 03:44:00,
2013-07-28 23:47:00,66.0,64.8,30.00,East,79,5.0,8.0,96,0.00,,---,0.01,VWS V14.01,2013-07-29 03:47:00,
2013-07-28 23:48:00,65.9,64.7,30.00,East,79,4.0,8.0,96,0.00,,---,0.01,VWS V14.01,2013-07-29 03:48:00,
2013-07-28 23:50:00,65.9,64.4,30.00,ENE,78,2.0,8.0,95,0.00,,---,0.01,VWS V14.01,2013-07-29 03:50:00,
2013-07-28 23:51:00,65.9,64.7,30.00,ENE,77,2.0,8.0,96,0.00,,---,0.01,VWS V14.01,2013-07-29 03:51:00,
2013-07-28 23:53:00,65.9,64.4,30.00,ENE,65,3.0,8.0,95,0.00,,---,0.01,VWS V14.01,2013-07-29 03:53:00,
2013-07-28 23:54:00,65.8,64.3,30.00,ENE,69,2.0,8.0,95,0.00,,---,0.01,VWS V14.01,2013-07-29 03:54:00,
2013-07-28 23:56:00,65.8,64.3,30.00,ENE,75,2.0,8.0,95,0.00,,---,0.01,VWS V14.01,2013-07-29 03:56:00,
2013-07-28 23:57:00,65.8,64.6,30.00,ENE,72,2.0,8.0,96,0.00,,---,0.01,VWS V14.01,2013-07-29 03:57:00,
2013-07-28 23:58:00,65.8,64.6,30.00,ENE,63,0.0,0.0,96,0.00,,---,0.01,VWS V14.01,2013-07-29 03:58:00,